<?xml version="1.0" encoding="UTF-8" standalone="no" ?>
<gpx xmlns="http://www.topografix.com/GPX/1/1" xmlns:xsi="http://www.w3.org/2001/XMLSchema-instance" xsi:schemaLocation="http://www.topografix.com/GPX/1/1 http://www.topografix.com/GPX/1/1/gpx.xsd" version="1.1" creator="VisuGPX - https://www.visugpx.com">
  <metadata>
    <name>Sainte-Victoire la Croix de Provence</name>
    <desc><![CDATA[Boucle du Barrage de Bimont à la Croix de Provence]]></desc>
  </metadata>
  <wpt lat="43.54073" lon="5.53649">
    <ele>314.2</ele>
    <name><![CDATA[Barrage de Bimont]]></name>
    <type><![CDATA[vue]]></type>
  </wpt>
  <wpt lat="43.53098" lon="5.57994">
    <ele>935.2</ele>
    <name><![CDATA[Croix de Provence]]></name>
    <type><![CDATA[vue]]></type>
  </wpt>
  <wpt lat="43.53159" lon="5.57848">
    <ele>893</ele>
    <name><![CDATA[Prieuré de Sainte-Victoire]]></name>
    <type><![CDATA[patrimoine]]></type>
    <extensions>
      <visugpx:TrackPointExtension xmlns:visugpx="https://www.visugpx.com/editgpx/">
        <visugpx:dec>0,0</visugpx:dec>
      </visugpx:TrackPointExtension>
    </extensions>
  </wpt>
  <wpt lat="43.5314" lon="5.57853">
    <ele>899.7</ele>
    <name><![CDATA[La Brèche des Moines]]></name>
    <type><![CDATA[vue]]></type>
  </wpt>
  <trk>
    <name><![CDATA[Sainte Victoire la Croix de Provence faite le 08 fév 2020]]></name>
    <extensions>
      <line xmlns="http://www.topografix.com/GPX/gpx_style/0/2">
        <color>0000FF</color>
        <width>4</width>
      </line>
    </extensions>
    <trkseg>
      <trkpt lat="43.54169" lon="5.53334">
        <ele>357.4</ele>
        <time>2020-02-08T09:39:13+01:00</time>
      </trkpt>
      <trkpt lat="43.54166" lon="5.53336">
        <ele>357.1</ele>
      </trkpt>
      <trkpt lat="43.54167" lon="5.5336">
        <ele>358</ele>
      </trkpt>
      <trkpt lat="43.54157" lon="5.53401">
        <ele>357.2</ele>
      </trkpt>
      <trkpt lat="43.54141" lon="5.53432">
        <ele>358.2</ele>
      </trkpt>
      <trkpt lat="43.54137" lon="5.53436">
        <ele>357.8</ele>
      </trkpt>
      <trkpt lat="43.5413" lon="5.53442">
        <ele>357</ele>
        <time>2020-02-08T09:39:54+01:00</time>
      </trkpt>
      <trkpt lat="43.54122" lon="5.53451">
        <ele>354.7</ele>
      </trkpt>
      <trkpt lat="43.54116" lon="5.53453">
        <ele>352.5</ele>
        <time>2020-02-08T09:40:12+01:00</time>
      </trkpt>
      <trkpt lat="43.54125" lon="5.53451">
        <ele>355.3</ele>
      </trkpt>
      <trkpt lat="43.5413" lon="5.53453">
        <ele>356.3</ele>
      </trkpt>
      <trkpt lat="43.54133" lon="5.5346">
        <ele>356.4</ele>
        <time>2020-02-08T09:41:32+01:00</time>
      </trkpt>
      <trkpt lat="43.54135" lon="5.53463">
        <ele>357</ele>
        <time>2020-02-08T09:41:44+01:00</time>
      </trkpt>
      <trkpt lat="43.54137" lon="5.53479">
        <ele>356.5</ele>
      </trkpt>
      <trkpt lat="43.54149" lon="5.53517">
        <ele>354.7</ele>
        <time>2020-02-08T09:42:04+01:00</time>
      </trkpt>
      <trkpt lat="43.54152" lon="5.53531">
        <ele>353.8</ele>
        <time>2020-02-08T09:42:44+01:00</time>
      </trkpt>
      <trkpt lat="43.54151" lon="5.53553">
        <ele>353.2</ele>
      </trkpt>
      <trkpt lat="43.54146" lon="5.53569">
        <ele>352.5</ele>
        <time>2020-02-08T09:43:11+01:00</time>
      </trkpt>
      <trkpt lat="43.54142" lon="5.53578">
        <ele>352.2</ele>
        <time>2020-02-08T09:43:19+01:00</time>
      </trkpt>
      <trkpt lat="43.54136" lon="5.53586">
        <ele>349.2</ele>
      </trkpt>
      <trkpt lat="43.54129" lon="5.53596">
        <ele>342.9</ele>
        <time>2020-02-08T09:43:34+01:00</time>
      </trkpt>
      <trkpt lat="43.54116" lon="5.53614">
        <ele>333.8</ele>
        <time>2020-02-08T09:44:10+01:00</time>
      </trkpt>
      <trkpt lat="43.54101" lon="5.53631">
        <ele>324.2</ele>
        <time>2020-02-08T09:44:49+01:00</time>
      </trkpt>
      <trkpt lat="43.54091" lon="5.53638">
        <ele>321.2</ele>
      </trkpt>
      <trkpt lat="43.54075" lon="5.53647">
        <ele>315</ele>
      </trkpt>
      <trkpt lat="43.54064" lon="5.53651">
        <ele>310.4</ele>
      </trkpt>
      <trkpt lat="43.54054" lon="5.53655">
        <ele>310.1</ele>
      </trkpt>
      <trkpt lat="43.54045" lon="5.53655">
        <ele>311.7</ele>
        <time>2020-02-08T09:45:39+01:00</time>
      </trkpt>
      <trkpt lat="43.54033" lon="5.53655">
        <ele>311.6</ele>
      </trkpt>
      <trkpt lat="43.54013" lon="5.53652">
        <ele>316.4</ele>
        <time>2020-02-08T09:46:14+01:00</time>
      </trkpt>
      <trkpt lat="43.53996" lon="5.53646">
        <ele>324.3</ele>
        <time>2020-02-08T09:46:30+01:00</time>
      </trkpt>
      <trkpt lat="43.53971" lon="5.5363">
        <ele>340.2</ele>
      </trkpt>
      <trkpt lat="43.53943" lon="5.53605">
        <ele>351.4</ele>
        <time>2020-02-08T09:47:13+01:00</time>
      </trkpt>
      <trkpt lat="43.53941" lon="5.53606">
        <ele>352.2</ele>
      </trkpt>
      <trkpt lat="43.5394" lon="5.53612">
        <ele>353.3</ele>
        <time>2020-02-08T09:47:41+01:00</time>
      </trkpt>
      <trkpt lat="43.53946" lon="5.53621">
        <ele>351.7</ele>
      </trkpt>
      <trkpt lat="43.53946" lon="5.53631">
        <ele>352.1</ele>
        <time>2020-02-08T09:47:56+01:00</time>
      </trkpt>
      <trkpt lat="43.53935" lon="5.53649">
        <ele>355.6</ele>
        <time>2020-02-08T09:48:30+01:00</time>
      </trkpt>
      <trkpt lat="43.53934" lon="5.53667">
        <ele>355.8</ele>
        <time>2020-02-08T09:48:42+01:00</time>
      </trkpt>
      <trkpt lat="43.53924" lon="5.5369">
        <ele>360.2</ele>
      </trkpt>
      <trkpt lat="43.53886" lon="5.53758">
        <ele>366.9</ele>
      </trkpt>
      <trkpt lat="43.53874" lon="5.53762">
        <ele>367.9</ele>
        <time>2020-02-08T09:51:25+01:00</time>
      </trkpt>
      <trkpt lat="43.53869" lon="5.53767">
        <ele>368.3</ele>
        <time>2020-02-08T09:51:33+01:00</time>
      </trkpt>
      <trkpt lat="43.53851" lon="5.53801">
        <ele>369.8</ele>
      </trkpt>
      <trkpt lat="43.53829" lon="5.53832">
        <ele>370.4</ele>
        <time>2020-02-08T09:52:27+01:00</time>
      </trkpt>
      <trkpt lat="43.5382" lon="5.53848">
        <ele>369.9</ele>
        <time>2020-02-08T09:52:48+01:00</time>
      </trkpt>
      <trkpt lat="43.53814" lon="5.53875">
        <ele>368.4</ele>
      </trkpt>
      <trkpt lat="43.53795" lon="5.53907">
        <ele>370.1</ele>
        <time>2020-02-08T09:53:44+01:00</time>
      </trkpt>
      <trkpt lat="43.53779" lon="5.53933">
        <ele>372.8</ele>
        <time>2020-02-08T09:54:16+01:00</time>
      </trkpt>
      <trkpt lat="43.53757" lon="5.53967">
        <ele>375.1</ele>
        <time>2020-02-08T09:55:14+01:00</time>
      </trkpt>
      <trkpt lat="43.53718" lon="5.54008">
        <ele>374.7</ele>
        <time>2020-02-08T09:56:06+01:00</time>
      </trkpt>
      <trkpt lat="43.5371" lon="5.54017">
        <ele>375.1</ele>
      </trkpt>
      <trkpt lat="43.53707" lon="5.54059">
        <ele>374.2</ele>
        <time>2020-02-08T09:57:34+01:00</time>
      </trkpt>
      <trkpt lat="43.53703" lon="5.54085">
        <ele>371.2</ele>
        <time>2020-02-08T09:58:49+01:00</time>
      </trkpt>
      <trkpt lat="43.53695" lon="5.54101">
        <ele>367.9</ele>
        <time>2020-02-08T09:59:07+01:00</time>
      </trkpt>
      <trkpt lat="43.53691" lon="5.54111">
        <ele>366</ele>
        <time>2020-02-08T09:59:31+01:00</time>
      </trkpt>
      <trkpt lat="43.53687" lon="5.54122">
        <ele>364.3</ele>
        <time>2020-02-08T09:59:55+01:00</time>
      </trkpt>
      <trkpt lat="43.53676" lon="5.5414">
        <ele>362.6</ele>
        <time>2020-02-08T10:00:17+01:00</time>
      </trkpt>
      <trkpt lat="43.5366" lon="5.54181">
        <ele>358</ele>
        <time>2020-02-08T10:01:04+01:00</time>
      </trkpt>
      <trkpt lat="43.5366" lon="5.54191">
        <ele>355.8</ele>
      </trkpt>
      <trkpt lat="43.53663" lon="5.54209">
        <ele>354.5</ele>
      </trkpt>
      <trkpt lat="43.53673" lon="5.54246">
        <ele>352</ele>
        <time>2020-02-08T10:01:16+01:00</time>
      </trkpt>
      <trkpt lat="43.5367" lon="5.5426">
        <ele>352.1</ele>
        <time>2020-02-08T10:01:37+01:00</time>
      </trkpt>
      <trkpt lat="43.53674" lon="5.54278">
        <ele>353.4</ele>
        <time>2020-02-08T10:01:58+01:00</time>
      </trkpt>
      <trkpt lat="43.53673" lon="5.54298">
        <ele>353.7</ele>
        <time>2020-02-08T10:02:23+01:00</time>
      </trkpt>
      <trkpt lat="43.53658" lon="5.54341">
        <ele>357</ele>
        <time>2020-02-08T10:02:50+01:00</time>
      </trkpt>
      <trkpt lat="43.53674" lon="5.54386">
        <ele>360.7</ele>
        <time>2020-02-08T10:03:09+01:00</time>
      </trkpt>
      <trkpt lat="43.53691" lon="5.5441">
        <ele>363.4</ele>
        <time>2020-02-08T10:03:34+01:00</time>
      </trkpt>
      <trkpt lat="43.53723" lon="5.54495">
        <ele>373.8</ele>
        <time>2020-02-08T10:03:53+01:00</time>
      </trkpt>
      <trkpt lat="43.53727" lon="5.54555">
        <ele>382</ele>
        <time>2020-02-08T10:05:00+01:00</time>
      </trkpt>
      <trkpt lat="43.53736" lon="5.54582">
        <ele>386.4</ele>
        <time>2020-02-08T10:05:50+01:00</time>
      </trkpt>
      <trkpt lat="43.53759" lon="5.54627">
        <ele>392.8</ele>
        <time>2020-02-08T10:06:41+01:00</time>
      </trkpt>
      <trkpt lat="43.53767" lon="5.54628">
        <ele>393.6</ele>
        <time>2020-02-08T10:06:59+01:00</time>
      </trkpt>
      <trkpt lat="43.53773" lon="5.54636">
        <ele>394.1</ele>
        <time>2020-02-08T10:07:27+01:00</time>
      </trkpt>
      <trkpt lat="43.53771" lon="5.54662">
        <ele>396.1</ele>
        <time>2020-02-08T10:07:40+01:00</time>
      </trkpt>
      <trkpt lat="43.53775" lon="5.54689">
        <ele>398.9</ele>
        <time>2020-02-08T10:08:35+01:00</time>
      </trkpt>
      <trkpt lat="43.53783" lon="5.54715">
        <ele>405.3</ele>
        <time>2020-02-08T10:09:05+01:00</time>
      </trkpt>
      <trkpt lat="43.53794" lon="5.54781">
        <ele>421.1</ele>
        <time>2020-02-08T10:09:34+01:00</time>
      </trkpt>
      <trkpt lat="43.53795" lon="5.54807">
        <ele>425.7</ele>
        <time>2020-02-08T10:10:19+01:00</time>
      </trkpt>
      <trkpt lat="43.53796" lon="5.54827">
        <ele>427.7</ele>
        <time>2020-02-08T10:11:04+01:00</time>
      </trkpt>
      <trkpt lat="43.53801" lon="5.54843">
        <ele>428.5</ele>
        <time>2020-02-08T10:11:25+01:00</time>
      </trkpt>
      <trkpt lat="43.53826" lon="5.54871">
        <ele>432.5</ele>
        <time>2020-02-08T10:11:39+01:00</time>
      </trkpt>
      <trkpt lat="43.53849" lon="5.54898">
        <ele>435.7</ele>
        <time>2020-02-08T10:20:37+01:00</time>
      </trkpt>
      <trkpt lat="43.53867" lon="5.54939">
        <ele>440.9</ele>
        <time>2020-02-08T10:20:47+01:00</time>
      </trkpt>
      <trkpt lat="43.53871" lon="5.54957">
        <ele>442.7</ele>
        <time>2020-02-08T10:21:27+01:00</time>
      </trkpt>
      <trkpt lat="43.53876" lon="5.54982">
        <ele>446.5</ele>
        <time>2020-02-08T10:22:03+01:00</time>
      </trkpt>
      <trkpt lat="43.53888" lon="5.55004">
        <ele>452.2</ele>
      </trkpt>
      <trkpt lat="43.53898" lon="5.55039">
        <ele>455.6</ele>
        <time>2020-02-08T10:22:53+01:00</time>
      </trkpt>
      <trkpt lat="43.53907" lon="5.55072">
        <ele>459.3</ele>
        <time>2020-02-08T10:23:21+01:00</time>
      </trkpt>
      <trkpt lat="43.53912" lon="5.551">
        <ele>463</ele>
        <time>2020-02-08T10:23:53+01:00</time>
      </trkpt>
      <trkpt lat="43.53914" lon="5.5511">
        <ele>464.6</ele>
      </trkpt>
      <trkpt lat="43.5392" lon="5.55118">
        <ele>465.3</ele>
        <time>2020-02-08T10:24:03+01:00</time>
      </trkpt>
      <trkpt lat="43.53917" lon="5.55123">
        <ele>466.6</ele>
        <time>2020-02-08T10:24:13+01:00</time>
      </trkpt>
      <trkpt lat="43.53909" lon="5.5514">
        <ele>468.3</ele>
        <time>2020-02-08T10:24:35+01:00</time>
      </trkpt>
      <trkpt lat="43.5391" lon="5.55163">
        <ele>470.2</ele>
      </trkpt>
      <trkpt lat="43.5391" lon="5.55184">
        <ele>470.9</ele>
        <time>2020-02-08T10:24:56+01:00</time>
      </trkpt>
      <trkpt lat="43.53913" lon="5.55196">
        <ele>471.4</ele>
        <time>2020-02-08T10:25:14+01:00</time>
      </trkpt>
      <trkpt lat="43.53917" lon="5.5521">
        <ele>471.4</ele>
      </trkpt>
      <trkpt lat="43.5392" lon="5.55223">
        <ele>470.6</ele>
      </trkpt>
      <trkpt lat="43.53926" lon="5.55236">
        <ele>470.7</ele>
        <time>2020-02-08T10:25:31+01:00</time>
      </trkpt>
      <trkpt lat="43.53929" lon="5.55247">
        <ele>471.3</ele>
        <time>2020-02-08T10:26:12+01:00</time>
      </trkpt>
      <trkpt lat="43.53929" lon="5.55281">
        <ele>476.8</ele>
        <time>2020-02-08T10:26:30+01:00</time>
      </trkpt>
      <trkpt lat="43.53917" lon="5.55292">
        <ele>479.7</ele>
        <time>2020-02-08T10:27:01+01:00</time>
      </trkpt>
      <trkpt lat="43.53917" lon="5.55304">
        <ele>482.5</ele>
      </trkpt>
      <trkpt lat="43.5392" lon="5.55314">
        <ele>483.9</ele>
        <time>2020-02-08T10:27:22+01:00</time>
      </trkpt>
      <trkpt lat="43.53918" lon="5.55331">
        <ele>486.5</ele>
        <time>2020-02-08T10:27:51+01:00</time>
      </trkpt>
      <trkpt lat="43.53913" lon="5.55345">
        <ele>489.7</ele>
        <time>2020-02-08T10:28:05+01:00</time>
      </trkpt>
      <trkpt lat="43.53911" lon="5.5535">
        <ele>490.8</ele>
        <time>2020-02-08T10:28:43+01:00</time>
      </trkpt>
      <trkpt lat="43.53907" lon="5.55352">
        <ele>491</ele>
      </trkpt>
      <trkpt lat="43.53899" lon="5.55362">
        <ele>493.2</ele>
      </trkpt>
      <trkpt lat="43.53895" lon="5.55364">
        <ele>493.5</ele>
      </trkpt>
      <trkpt lat="43.53891" lon="5.55368">
        <ele>494.6</ele>
        <time>2020-02-08T10:29:02+01:00</time>
      </trkpt>
      <trkpt lat="43.53886" lon="5.55376">
        <ele>496.5</ele>
      </trkpt>
      <trkpt lat="43.5388" lon="5.5538">
        <ele>497</ele>
      </trkpt>
      <trkpt lat="43.53875" lon="5.55387">
        <ele>498.7</ele>
        <time>2020-02-08T10:29:35+01:00</time>
      </trkpt>
      <trkpt lat="43.53872" lon="5.55397">
        <ele>501.3</ele>
      </trkpt>
      <trkpt lat="43.53857" lon="5.55423">
        <ele>507.8</ele>
        <time>2020-02-08T10:30:42+01:00</time>
      </trkpt>
      <trkpt lat="43.53853" lon="5.55438">
        <ele>512.1</ele>
      </trkpt>
      <trkpt lat="43.5385" lon="5.55452">
        <ele>516.4</ele>
        <time>2020-02-08T10:31:22+01:00</time>
      </trkpt>
      <trkpt lat="43.53852" lon="5.55459">
        <ele>518.5</ele>
      </trkpt>
      <trkpt lat="43.53852" lon="5.55465">
        <ele>520.5</ele>
      </trkpt>
      <trkpt lat="43.53855" lon="5.55471">
        <ele>522.5</ele>
        <time>2020-02-08T10:32:15+01:00</time>
      </trkpt>
      <trkpt lat="43.53855" lon="5.55479">
        <ele>525.1</ele>
        <time>2020-02-08T10:38:34+01:00</time>
      </trkpt>
      <trkpt lat="43.53853" lon="5.5548">
        <ele>525.4</ele>
      </trkpt>
      <trkpt lat="43.53852" lon="5.55486">
        <ele>527.2</ele>
      </trkpt>
      <trkpt lat="43.53857" lon="5.55486">
        <ele>527.5</ele>
      </trkpt>
      <trkpt lat="43.53856" lon="5.55506">
        <ele>533.5</ele>
      </trkpt>
      <trkpt lat="43.5386" lon="5.55514">
        <ele>535</ele>
        <time>2020-02-08T10:39:34+01:00</time>
      </trkpt>
      <trkpt lat="43.53857" lon="5.5552">
        <ele>536.6</ele>
        <time>2020-02-08T10:39:48+01:00</time>
      </trkpt>
      <trkpt lat="43.53846" lon="5.55542">
        <ele>542.4</ele>
        <time>2020-02-08T10:40:33+01:00</time>
      </trkpt>
      <trkpt lat="43.53845" lon="5.5555">
        <ele>544.6</ele>
        <time>2020-02-08T10:40:53+01:00</time>
      </trkpt>
      <trkpt lat="43.53839" lon="5.55572">
        <ele>550.2</ele>
        <time>2020-02-08T10:42:09+01:00</time>
      </trkpt>
      <trkpt lat="43.53839" lon="5.55583">
        <ele>552.6</ele>
        <time>2020-02-08T10:50:46+01:00</time>
      </trkpt>
      <trkpt lat="43.53838" lon="5.55592">
        <ele>554</ele>
      </trkpt>
      <trkpt lat="43.53837" lon="5.5562">
        <ele>558.6</ele>
        <time>2020-02-08T10:51:20+01:00</time>
      </trkpt>
      <trkpt lat="43.53839" lon="5.55646">
        <ele>562.8</ele>
        <time>2020-02-08T10:51:39+01:00</time>
      </trkpt>
      <trkpt lat="43.53841" lon="5.55669">
        <ele>566.8</ele>
        <time>2020-02-08T10:52:41+01:00</time>
      </trkpt>
      <trkpt lat="43.53843" lon="5.5569">
        <ele>570.5</ele>
        <time>2020-02-08T10:53:15+01:00</time>
      </trkpt>
      <trkpt lat="43.53853" lon="5.55708">
        <ele>570</ele>
      </trkpt>
      <trkpt lat="43.53864" lon="5.55722">
        <ele>569.9</ele>
      </trkpt>
      <trkpt lat="43.53868" lon="5.5573">
        <ele>570.1</ele>
        <time>2020-02-08T10:53:58+01:00</time>
      </trkpt>
      <trkpt lat="43.53867" lon="5.55742">
        <ele>572.5</ele>
      </trkpt>
      <trkpt lat="43.53872" lon="5.55753">
        <ele>572.4</ele>
      </trkpt>
      <trkpt lat="43.53873" lon="5.55762">
        <ele>573.4</ele>
      </trkpt>
      <trkpt lat="43.53879" lon="5.55773">
        <ele>572.4</ele>
        <time>2020-02-08T10:55:06+01:00</time>
      </trkpt>
      <trkpt lat="43.53879" lon="5.55784">
        <ele>573.4</ele>
        <time>2020-02-08T10:55:38+01:00</time>
      </trkpt>
      <trkpt lat="43.53875" lon="5.55795">
        <ele>576.7</ele>
      </trkpt>
      <trkpt lat="43.53874" lon="5.55812">
        <ele>579.1</ele>
      </trkpt>
      <trkpt lat="43.53872" lon="5.55828">
        <ele>582.2</ele>
        <time>2020-02-08T10:56:21+01:00</time>
      </trkpt>
      <trkpt lat="43.53872" lon="5.55835">
        <ele>583.1</ele>
      </trkpt>
      <trkpt lat="43.5387" lon="5.55841">
        <ele>584.5</ele>
      </trkpt>
      <trkpt lat="43.53869" lon="5.55846">
        <ele>585.5</ele>
      </trkpt>
      <trkpt lat="43.53869" lon="5.55861">
        <ele>587.1</ele>
      </trkpt>
      <trkpt lat="43.53871" lon="5.55872">
        <ele>587.1</ele>
        <time>2020-02-08T10:57:29+01:00</time>
      </trkpt>
      <trkpt lat="43.53869" lon="5.55888">
        <ele>589.6</ele>
        <time>2020-02-08T10:57:41+01:00</time>
      </trkpt>
      <trkpt lat="43.53871" lon="5.559">
        <ele>590.2</ele>
        <time>2020-02-08T10:57:54+01:00</time>
      </trkpt>
      <trkpt lat="43.53869" lon="5.55933">
        <ele>593.7</ele>
        <time>2020-02-08T10:59:22+01:00</time>
      </trkpt>
      <trkpt lat="43.53871" lon="5.55948">
        <ele>593.8</ele>
        <time>2020-02-08T10:59:35+01:00</time>
      </trkpt>
      <trkpt lat="43.53871" lon="5.55956">
        <ele>594.9</ele>
      </trkpt>
      <trkpt lat="43.53872" lon="5.55975">
        <ele>597</ele>
      </trkpt>
      <trkpt lat="43.53872" lon="5.55993">
        <ele>599.2</ele>
      </trkpt>
      <trkpt lat="43.53874" lon="5.56011">
        <ele>601.2</ele>
        <time>2020-02-08T11:00:39+01:00</time>
      </trkpt>
      <trkpt lat="43.53883" lon="5.56027">
        <ele>602</ele>
      </trkpt>
      <trkpt lat="43.53892" lon="5.56049">
        <ele>602.6</ele>
      </trkpt>
      <trkpt lat="43.53896" lon="5.56065">
        <ele>602.2</ele>
      </trkpt>
      <trkpt lat="43.53899" lon="5.56081">
        <ele>601.7</ele>
        <time>2020-02-08T11:01:37+01:00</time>
      </trkpt>
      <trkpt lat="43.53897" lon="5.56092">
        <ele>601.7</ele>
        <time>2020-02-08T11:01:56+01:00</time>
      </trkpt>
      <trkpt lat="43.53892" lon="5.56103">
        <ele>602.9</ele>
        <time>2020-02-08T11:02:13+01:00</time>
      </trkpt>
      <trkpt lat="43.53886" lon="5.56112">
        <ele>602.7</ele>
        <time>2020-02-08T11:02:54+01:00</time>
      </trkpt>
      <trkpt lat="43.53872" lon="5.56125">
        <ele>601.2</ele>
        <time>2020-02-08T11:03:15+01:00</time>
      </trkpt>
      <trkpt lat="43.53859" lon="5.56142">
        <ele>601.1</ele>
      </trkpt>
      <trkpt lat="43.53843" lon="5.5616">
        <ele>599</ele>
        <time>2020-02-08T11:03:46+01:00</time>
      </trkpt>
      <trkpt lat="43.53842" lon="5.56171">
        <ele>599.3</ele>
      </trkpt>
      <trkpt lat="43.53835" lon="5.56186">
        <ele>600.3</ele>
        <time>2020-02-08T11:04:32+01:00</time>
      </trkpt>
      <trkpt lat="43.53827" lon="5.56231">
        <ele>596.5</ele>
        <time>2020-02-08T11:05:00+01:00</time>
      </trkpt>
      <trkpt lat="43.53829" lon="5.56247">
        <ele>596.6</ele>
        <time>2020-02-08T11:06:08+01:00</time>
      </trkpt>
      <trkpt lat="43.53827" lon="5.56261">
        <ele>595.6</ele>
      </trkpt>
      <trkpt lat="43.53832" lon="5.56301">
        <ele>597.6</ele>
        <time>2020-02-08T11:06:40+01:00</time>
      </trkpt>
      <trkpt lat="43.53827" lon="5.56338">
        <ele>595.8</ele>
        <time>2020-02-08T11:07:19+01:00</time>
      </trkpt>
      <trkpt lat="43.5383" lon="5.56355">
        <ele>597.6</ele>
        <time>2020-02-08T11:07:29+01:00</time>
      </trkpt>
      <trkpt lat="43.5383" lon="5.56364">
        <ele>598.4</ele>
      </trkpt>
      <trkpt lat="43.53835" lon="5.56394">
        <ele>602</ele>
      </trkpt>
      <trkpt lat="43.53837" lon="5.56411">
        <ele>603</ele>
        <time>2020-02-08T11:07:55+01:00</time>
      </trkpt>
      <trkpt lat="43.53841" lon="5.56426">
        <ele>604.4</ele>
      </trkpt>
      <trkpt lat="43.53843" lon="5.5644">
        <ele>606.3</ele>
        <time>2020-02-08T11:08:48+01:00</time>
      </trkpt>
      <trkpt lat="43.53844" lon="5.56463">
        <ele>607.7</ele>
        <time>2020-02-08T11:09:17+01:00</time>
      </trkpt>
      <trkpt lat="43.53848" lon="5.56476">
        <ele>609</ele>
        <time>2020-02-08T11:09:53+01:00</time>
      </trkpt>
      <trkpt lat="43.53849" lon="5.56499">
        <ele>611.7</ele>
      </trkpt>
      <trkpt lat="43.53851" lon="5.56516">
        <ele>615.8</ele>
        <time>2020-02-08T11:10:21+01:00</time>
      </trkpt>
      <trkpt lat="43.53857" lon="5.56534">
        <ele>620.4</ele>
      </trkpt>
      <trkpt lat="43.53865" lon="5.56548">
        <ele>623.2</ele>
        <time>2020-02-08T11:10:59+01:00</time>
      </trkpt>
      <trkpt lat="43.53861" lon="5.56572">
        <ele>628.8</ele>
        <time>2020-02-08T11:11:34+01:00</time>
      </trkpt>
      <trkpt lat="43.53857" lon="5.56592">
        <ele>631.3</ele>
        <time>2020-02-08T11:11:48+01:00</time>
      </trkpt>
      <trkpt lat="43.53857" lon="5.566">
        <ele>632.2</ele>
        <time>2020-02-08T11:12:03+01:00</time>
      </trkpt>
      <trkpt lat="43.53861" lon="5.5662">
        <ele>635.5</ele>
        <time>2020-02-08T11:12:18+01:00</time>
      </trkpt>
      <trkpt lat="43.53859" lon="5.56624">
        <ele>635.1</ele>
      </trkpt>
      <trkpt lat="43.53859" lon="5.56628">
        <ele>635.5</ele>
        <time>2020-02-08T11:12:33+01:00</time>
      </trkpt>
      <trkpt lat="43.53857" lon="5.56631">
        <ele>634.9</ele>
      </trkpt>
      <trkpt lat="43.53858" lon="5.56635">
        <ele>635.3</ele>
        <time>2020-02-08T11:13:00+01:00</time>
      </trkpt>
      <trkpt lat="43.53853" lon="5.56648">
        <ele>633.5</ele>
      </trkpt>
      <trkpt lat="43.53851" lon="5.5666">
        <ele>632.3</ele>
      </trkpt>
      <trkpt lat="43.53851" lon="5.56678">
        <ele>631.8</ele>
      </trkpt>
      <trkpt lat="43.53853" lon="5.56682">
        <ele>632.3</ele>
      </trkpt>
      <trkpt lat="43.53854" lon="5.56686">
        <ele>632.3</ele>
      </trkpt>
      <trkpt lat="43.53852" lon="5.5669">
        <ele>631.8</ele>
      </trkpt>
      <trkpt lat="43.53843" lon="5.56725">
        <ele>633.9</ele>
      </trkpt>
      <trkpt lat="43.53834" lon="5.56753">
        <ele>639.6</ele>
        <time>2020-02-08T11:15:38+01:00</time>
      </trkpt>
      <trkpt lat="43.5383" lon="5.56768">
        <ele>637.3</ele>
        <time>2020-02-08T11:15:51+01:00</time>
      </trkpt>
      <trkpt lat="43.53823" lon="5.56772">
        <ele>634.2</ele>
        <time>2020-02-08T11:16:13+01:00</time>
      </trkpt>
      <trkpt lat="43.53824" lon="5.56789">
        <ele>636.4</ele>
        <time>2020-02-08T11:16:23+01:00</time>
      </trkpt>
      <trkpt lat="43.5381" lon="5.56824">
        <ele>641.6</ele>
      </trkpt>
      <trkpt lat="43.53801" lon="5.56838">
        <ele>641.6</ele>
      </trkpt>
      <trkpt lat="43.53797" lon="5.56854">
        <ele>642.4</ele>
        <time>2020-02-08T11:17:46+01:00</time>
      </trkpt>
      <trkpt lat="43.5379" lon="5.56865">
        <ele>644.4</ele>
      </trkpt>
      <trkpt lat="43.5378" lon="5.56876">
        <ele>645.5</ele>
      </trkpt>
      <trkpt lat="43.53776" lon="5.56887">
        <ele>644</ele>
        <time>2020-02-08T11:18:58+01:00</time>
      </trkpt>
      <trkpt lat="43.53775" lon="5.56897">
        <ele>643.3</ele>
      </trkpt>
      <trkpt lat="43.5376" lon="5.56917">
        <ele>642.7</ele>
        <time>2020-02-08T11:19:39+01:00</time>
      </trkpt>
      <trkpt lat="43.53752" lon="5.56938">
        <ele>647.1</ele>
        <time>2020-02-08T11:19:50+01:00</time>
      </trkpt>
      <trkpt lat="43.53751" lon="5.56957">
        <ele>648.8</ele>
      </trkpt>
      <trkpt lat="43.53741" lon="5.56984">
        <ele>651.8</ele>
        <time>2020-02-08T11:20:47+01:00</time>
      </trkpt>
      <trkpt lat="43.53717" lon="5.57017">
        <ele>659.4</ele>
        <time>2020-02-08T11:21:16+01:00</time>
      </trkpt>
      <trkpt lat="43.53698" lon="5.57029">
        <ele>666</ele>
        <time>2020-02-08T11:31:08+01:00</time>
      </trkpt>
      <trkpt lat="43.53691" lon="5.57042">
        <ele>668.8</ele>
        <time>2020-02-08T11:31:22+01:00</time>
      </trkpt>
      <trkpt lat="43.53687" lon="5.57055">
        <ele>671.6</ele>
      </trkpt>
      <trkpt lat="43.5368" lon="5.57064">
        <ele>673.8</ele>
        <time>2020-02-08T11:31:58+01:00</time>
      </trkpt>
      <trkpt lat="43.53673" lon="5.5707">
        <ele>676.6</ele>
        <time>2020-02-08T11:32:11+01:00</time>
      </trkpt>
      <trkpt lat="43.53666" lon="5.57073">
        <ele>678.7</ele>
      </trkpt>
      <trkpt lat="43.5366" lon="5.57095">
        <ele>681.5</ele>
        <time>2020-02-08T11:32:46+01:00</time>
      </trkpt>
      <trkpt lat="43.53653" lon="5.57123">
        <ele>688</ele>
      </trkpt>
      <trkpt lat="43.53653" lon="5.57125">
        <ele>688.3</ele>
      </trkpt>
      <trkpt lat="43.53652" lon="5.57135">
        <ele>690.6</ele>
        <time>2020-02-08T11:33:26+01:00</time>
      </trkpt>
      <trkpt lat="43.53633" lon="5.57138">
        <ele>695</ele>
        <time>2020-02-08T11:33:39+01:00</time>
      </trkpt>
      <trkpt lat="43.53635" lon="5.57144">
        <ele>697</ele>
        <time>2020-02-08T11:33:59+01:00</time>
      </trkpt>
      <trkpt lat="43.53637" lon="5.57159">
        <ele>699.5</ele>
        <time>2020-02-08T11:34:17+01:00</time>
      </trkpt>
      <trkpt lat="43.53635" lon="5.57161">
        <ele>700.4</ele>
      </trkpt>
      <trkpt lat="43.53629" lon="5.57164">
        <ele>703</ele>
        <time>2020-02-08T11:34:45+01:00</time>
      </trkpt>
      <trkpt lat="43.53624" lon="5.57179">
        <ele>706</ele>
      </trkpt>
      <trkpt lat="43.53621" lon="5.57183">
        <ele>707.6</ele>
        <time>2020-02-08T11:35:34+01:00</time>
      </trkpt>
      <trkpt lat="43.53612" lon="5.5719">
        <ele>711.3</ele>
        <time>2020-02-08T11:36:12+01:00</time>
      </trkpt>
      <trkpt lat="43.5361" lon="5.57193">
        <ele>712.3</ele>
      </trkpt>
      <trkpt lat="43.53611" lon="5.57194">
        <ele>712.1</ele>
      </trkpt>
      <trkpt lat="43.53607" lon="5.57201">
        <ele>713</ele>
      </trkpt>
      <trkpt lat="43.536" lon="5.57209">
        <ele>715</ele>
        <time>2020-02-08T11:36:28+01:00</time>
      </trkpt>
      <trkpt lat="43.53592" lon="5.57203">
        <ele>717.8</ele>
      </trkpt>
      <trkpt lat="43.5359" lon="5.57203">
        <ele>718.6</ele>
      </trkpt>
      <trkpt lat="43.53586" lon="5.57207">
        <ele>719.7</ele>
      </trkpt>
      <trkpt lat="43.53583" lon="5.57203">
        <ele>720.4</ele>
        <time>2020-02-08T11:37:30+01:00</time>
      </trkpt>
      <trkpt lat="43.53566" lon="5.57221">
        <ele>720.2</ele>
        <time>2020-02-08T11:37:47+01:00</time>
      </trkpt>
      <trkpt lat="43.53555" lon="5.57244">
        <ele>724.9</ele>
      </trkpt>
      <trkpt lat="43.53538" lon="5.57261">
        <ele>729.7</ele>
      </trkpt>
      <trkpt lat="43.53531" lon="5.57268">
        <ele>731.7</ele>
      </trkpt>
      <trkpt lat="43.53528" lon="5.57273">
        <ele>732.9</ele>
        <time>2020-02-08T11:39:47+01:00</time>
      </trkpt>
      <trkpt lat="43.53523" lon="5.57282">
        <ele>734</ele>
        <time>2020-02-08T11:40:36+01:00</time>
      </trkpt>
      <trkpt lat="43.53518" lon="5.57288">
        <ele>735.4</ele>
      </trkpt>
      <trkpt lat="43.53509" lon="5.57304">
        <ele>738.9</ele>
        <time>2020-02-08T11:40:48+01:00</time>
      </trkpt>
      <trkpt lat="43.535" lon="5.5732">
        <ele>741.6</ele>
        <time>2020-02-08T11:41:03+01:00</time>
      </trkpt>
      <trkpt lat="43.53487" lon="5.57315">
        <ele>743.5</ele>
        <time>2020-02-08T11:41:12+01:00</time>
      </trkpt>
      <trkpt lat="43.53484" lon="5.57317">
        <ele>744.1</ele>
        <time>2020-02-08T11:41:27+01:00</time>
      </trkpt>
      <trkpt lat="43.53479" lon="5.57324">
        <ele>745.9</ele>
      </trkpt>
      <trkpt lat="43.53475" lon="5.57334">
        <ele>748.2</ele>
      </trkpt>
      <trkpt lat="43.53468" lon="5.57337">
        <ele>749.7</ele>
        <time>2020-02-08T11:41:42+01:00</time>
      </trkpt>
      <trkpt lat="43.53463" lon="5.57339">
        <ele>750.8</ele>
        <time>2020-02-08T11:42:28+01:00</time>
      </trkpt>
      <trkpt lat="43.53456" lon="5.57352">
        <ele>753.2</ele>
      </trkpt>
      <trkpt lat="43.53441" lon="5.57359">
        <ele>757.3</ele>
        <time>2020-02-08T11:43:20+01:00</time>
      </trkpt>
      <trkpt lat="43.53427" lon="5.57364">
        <ele>760.6</ele>
        <time>2020-02-08T11:43:36+01:00</time>
      </trkpt>
      <trkpt lat="43.53417" lon="5.57358">
        <ele>761.4</ele>
        <time>2020-02-08T11:44:32+01:00</time>
      </trkpt>
      <trkpt lat="43.53404" lon="5.57361">
        <ele>763.2</ele>
      </trkpt>
      <trkpt lat="43.53393" lon="5.57362">
        <ele>764.8</ele>
      </trkpt>
      <trkpt lat="43.53393" lon="5.57379">
        <ele>769.5</ele>
        <time>2020-02-08T11:45:08+01:00</time>
      </trkpt>
      <trkpt lat="43.53386" lon="5.57387">
        <ele>772.2</ele>
      </trkpt>
      <trkpt lat="43.53384" lon="5.57393">
        <ele>773.6</ele>
        <time>2020-02-08T11:55:24+01:00</time>
      </trkpt>
      <trkpt lat="43.53383" lon="5.57399">
        <ele>775</ele>
        <time>2020-02-08T11:55:40+01:00</time>
      </trkpt>
      <trkpt lat="43.53374" lon="5.57419">
        <ele>782.5</ele>
        <time>2020-02-08T11:56:25+01:00</time>
      </trkpt>
      <trkpt lat="43.53369" lon="5.57428">
        <ele>785.5</ele>
      </trkpt>
      <trkpt lat="43.53364" lon="5.57436">
        <ele>788.6</ele>
      </trkpt>
      <trkpt lat="43.53362" lon="5.57449">
        <ele>791.7</ele>
        <time>2020-02-08T11:57:55+01:00</time>
      </trkpt>
      <trkpt lat="43.53362" lon="5.57464">
        <ele>794.3</ele>
      </trkpt>
      <trkpt lat="43.53361" lon="5.57468">
        <ele>795.1</ele>
        <time>2020-02-08T11:58:14+01:00</time>
      </trkpt>
      <trkpt lat="43.53359" lon="5.57469">
        <ele>796.1</ele>
      </trkpt>
      <trkpt lat="43.53355" lon="5.57459">
        <ele>796</ele>
      </trkpt>
      <trkpt lat="43.53345" lon="5.57439">
        <ele>795.3</ele>
        <time>2020-02-08T11:59:12+01:00</time>
      </trkpt>
      <trkpt lat="43.5334" lon="5.57434">
        <ele>794.8</ele>
      </trkpt>
      <trkpt lat="43.53335" lon="5.57432">
        <ele>794.8</ele>
      </trkpt>
      <trkpt lat="43.53329" lon="5.57437">
        <ele>798.1</ele>
        <time>2020-02-08T11:59:38+01:00</time>
      </trkpt>
      <trkpt lat="43.5333" lon="5.57446">
        <ele>803.1</ele>
      </trkpt>
      <trkpt lat="43.5333" lon="5.57455">
        <ele>804.9</ele>
        <time>2020-02-08T12:00:30+01:00</time>
      </trkpt>
      <trkpt lat="43.53331" lon="5.57459">
        <ele>805.3</ele>
        <time>2020-02-08T12:00:45+01:00</time>
      </trkpt>
      <trkpt lat="43.53332" lon="5.57463">
        <ele>805.9</ele>
      </trkpt>
      <trkpt lat="43.53328" lon="5.57469">
        <ele>808.3</ele>
      </trkpt>
      <trkpt lat="43.53315" lon="5.57477">
        <ele>814.6</ele>
        <time>2020-02-08T12:01:40+01:00</time>
      </trkpt>
      <trkpt lat="43.53308" lon="5.57474">
        <ele>817.2</ele>
        <time>2020-02-08T12:02:09+01:00</time>
      </trkpt>
      <trkpt lat="43.53306" lon="5.57476">
        <ele>818.2</ele>
      </trkpt>
      <trkpt lat="43.53302" lon="5.57484">
        <ele>819.9</ele>
      </trkpt>
      <trkpt lat="43.53294" lon="5.57502">
        <ele>825.8</ele>
        <time>2020-02-08T12:03:07+01:00</time>
      </trkpt>
      <trkpt lat="43.53285" lon="5.57513">
        <ele>829.8</ele>
        <time>2020-02-08T12:03:36+01:00</time>
      </trkpt>
      <trkpt lat="43.53279" lon="5.57519">
        <ele>832.9</ele>
      </trkpt>
      <trkpt lat="43.53272" lon="5.57524">
        <ele>836.3</ele>
      </trkpt>
      <trkpt lat="43.53268" lon="5.57525">
        <ele>837.9</ele>
        <time>2020-02-08T12:04:33+01:00</time>
      </trkpt>
      <trkpt lat="43.53265" lon="5.5753">
        <ele>839.8</ele>
      </trkpt>
      <trkpt lat="43.53257" lon="5.57538">
        <ele>843.3</ele>
      </trkpt>
      <trkpt lat="43.53247" lon="5.57552">
        <ele>848.6</ele>
        <time>2020-02-08T12:05:49+01:00</time>
      </trkpt>
      <trkpt lat="43.53244" lon="5.57557">
        <ele>850</ele>
      </trkpt>
      <trkpt lat="43.53239" lon="5.57575">
        <ele>853.1</ele>
        <time>2020-02-08T12:06:24+01:00</time>
      </trkpt>
      <trkpt lat="43.53231" lon="5.57578">
        <ele>857.4</ele>
        <time>2020-02-08T12:06:55+01:00</time>
      </trkpt>
      <trkpt lat="43.53227" lon="5.57577">
        <ele>859.5</ele>
      </trkpt>
      <trkpt lat="43.5322" lon="5.57585">
        <ele>863</ele>
        <time>2020-02-08T12:07:20+01:00</time>
      </trkpt>
      <trkpt lat="43.53219" lon="5.57603">
        <ele>864.6</ele>
      </trkpt>
      <trkpt lat="43.53217" lon="5.57606">
        <ele>865.4</ele>
        <time>2020-02-08T12:08:23+01:00</time>
      </trkpt>
      <trkpt lat="43.53217" lon="5.57629">
        <ele>866.5</ele>
        <time>2020-02-08T12:08:55+01:00</time>
      </trkpt>
      <trkpt lat="43.53214" lon="5.57638">
        <ele>867.9</ele>
      </trkpt>
      <trkpt lat="43.53211" lon="5.57631">
        <ele>869.6</ele>
      </trkpt>
      <trkpt lat="43.53207" lon="5.57649">
        <ele>871.5</ele>
      </trkpt>
      <trkpt lat="43.53205" lon="5.57658">
        <ele>872.2</ele>
      </trkpt>
      <trkpt lat="43.532" lon="5.57669">
        <ele>874.2</ele>
        <time>2020-02-08T12:10:07+01:00</time>
      </trkpt>
      <trkpt lat="43.53198" lon="5.57685">
        <ele>874.7</ele>
      </trkpt>
      <trkpt lat="43.53192" lon="5.57707">
        <ele>877.1</ele>
        <time>2020-02-08T12:10:45+01:00</time>
      </trkpt>
      <trkpt lat="43.5319" lon="5.57717">
        <ele>877.4</ele>
      </trkpt>
      <trkpt lat="43.53187" lon="5.5772">
        <ele>879.3</ele>
        <time>2020-02-08T12:11:18+01:00</time>
      </trkpt>
      <trkpt lat="43.53184" lon="5.57723">
        <ele>880.6</ele>
      </trkpt>
      <trkpt lat="43.53185" lon="5.57748">
        <ele>881.5</ele>
      </trkpt>
      <trkpt lat="43.53185" lon="5.5777">
        <ele>883</ele>
        <time>2020-02-08T12:11:45+01:00</time>
      </trkpt>
      <trkpt lat="43.53186" lon="5.57788">
        <ele>882.6</ele>
        <time>2020-02-08T12:12:06+01:00</time>
      </trkpt>
      <trkpt lat="43.53174" lon="5.57812">
        <ele>887.6</ele>
        <time>2020-02-08T12:15:00+01:00</time>
      </trkpt>
      <trkpt lat="43.53168" lon="5.5782">
        <ele>889.7</ele>
        <time>2020-02-08T12:16:11+01:00</time>
      </trkpt>
      <trkpt lat="43.53163" lon="5.57838">
        <ele>890.7</ele>
        <time>2020-02-08T12:16:25+01:00</time>
      </trkpt>
      <trkpt lat="43.53146" lon="5.57847">
        <ele>897.1</ele>
        <time>2020-02-08T12:16:40+01:00</time>
      </trkpt>
      <trkpt lat="43.53142" lon="5.57849">
        <ele>898.6</ele>
      </trkpt>
      <trkpt lat="43.53139" lon="5.57852">
        <ele>900</ele>
        <time>2020-02-08T12:16:52+01:00</time>
      </trkpt>
      <trkpt lat="43.53146" lon="5.57849">
        <ele>897.5</ele>
        <time>2020-02-08T12:18:56+01:00</time>
      </trkpt>
      <trkpt lat="43.53164" lon="5.5784">
        <ele>890.7</ele>
        <time>2020-02-08T12:19:33+01:00</time>
      </trkpt>
      <trkpt lat="43.53167" lon="5.57846">
        <ele>890.4</ele>
        <time>2020-02-08T12:22:17+01:00</time>
      </trkpt>
      <trkpt lat="43.53171" lon="5.5785">
        <ele>888.7</ele>
        <time>2020-02-08T12:22:30+01:00</time>
      </trkpt>
      <trkpt lat="43.53171" lon="5.57863">
        <ele>889.9</ele>
      </trkpt>
      <trkpt lat="43.53173" lon="5.57872">
        <ele>889.4</ele>
        <time>2020-02-08T12:23:21+01:00</time>
      </trkpt>
      <trkpt lat="43.53166" lon="5.57882">
        <ele>894.9</ele>
        <time>2020-02-08T12:24:15+01:00</time>
      </trkpt>
      <trkpt lat="43.53162" lon="5.5788">
        <ele>897.2</ele>
      </trkpt>
      <trkpt lat="43.53154" lon="5.57886">
        <ele>903.9</ele>
        <time>2020-02-08T12:24:56+01:00</time>
      </trkpt>
      <trkpt lat="43.53151" lon="5.57879">
        <ele>903</ele>
      </trkpt>
      <trkpt lat="43.53147" lon="5.57872">
        <ele>903.1</ele>
        <time>2020-02-08T12:26:02+01:00</time>
      </trkpt>
      <trkpt lat="43.53146" lon="5.57879">
        <ele>906.6</ele>
      </trkpt>
      <trkpt lat="43.53146" lon="5.57897">
        <ele>910.6</ele>
      </trkpt>
      <trkpt lat="43.53144" lon="5.57901">
        <ele>912.1</ele>
        <time>2020-02-08T12:26:18+01:00</time>
      </trkpt>
      <trkpt lat="43.53135" lon="5.57917">
        <ele>911</ele>
      </trkpt>
      <trkpt lat="43.5313" lon="5.57939">
        <ele>915.9</ele>
      </trkpt>
      <trkpt lat="43.53126" lon="5.57956">
        <ele>920.6</ele>
      </trkpt>
      <trkpt lat="43.53119" lon="5.57969">
        <ele>926</ele>
        <time>2020-02-08T12:28:18+01:00</time>
      </trkpt>
      <trkpt lat="43.53114" lon="5.57977">
        <ele>930.7</ele>
        <time>2020-02-08T12:28:40+01:00</time>
      </trkpt>
      <trkpt lat="43.53111" lon="5.57982">
        <ele>932.9</ele>
      </trkpt>
      <trkpt lat="43.53107" lon="5.57999">
        <ele>934.4</ele>
        <time>2020-02-08T12:29:21+01:00</time>
      </trkpt>
      <trkpt lat="43.53104" lon="5.58011">
        <ele>933.1</ele>
        <time>2020-02-08T12:29:36+01:00</time>
      </trkpt>
      <trkpt lat="43.53102" lon="5.58019">
        <ele>931.7</ele>
        <time>2020-02-08T12:30:05+01:00</time>
      </trkpt>
      <trkpt lat="43.531" lon="5.58016">
        <ele>932.6</ele>
      </trkpt>
      <trkpt lat="43.531" lon="5.58005">
        <ele>935.2</ele>
      </trkpt>
      <trkpt lat="43.53098" lon="5.58002">
        <ele>936.8</ele>
      </trkpt>
      <trkpt lat="43.53095" lon="5.58001">
        <ele>938.2</ele>
      </trkpt>
      <trkpt lat="43.5309" lon="5.58004">
        <ele>938.5</ele>
        <time>2020-02-08T12:30:36+01:00</time>
      </trkpt>
      <trkpt lat="43.53094" lon="5.57999">
        <ele>938.1</ele>
        <time>2020-02-08T12:34:58+01:00</time>
      </trkpt>
      <trkpt lat="43.53098" lon="5.58001">
        <ele>936.8</ele>
      </trkpt>
      <trkpt lat="43.531" lon="5.58005">
        <ele>935.2</ele>
      </trkpt>
      <trkpt lat="43.531" lon="5.58015">
        <ele>932.9</ele>
      </trkpt>
      <trkpt lat="43.53102" lon="5.58019">
        <ele>931.6</ele>
      </trkpt>
      <trkpt lat="43.53111" lon="5.57983">
        <ele>933</ele>
        <time>2020-02-08T13:27:15+01:00</time>
      </trkpt>
      <trkpt lat="43.53119" lon="5.57969">
        <ele>926</ele>
      </trkpt>
      <trkpt lat="43.53126" lon="5.57956">
        <ele>920.6</ele>
        <time>2020-02-08T13:27:48+01:00</time>
      </trkpt>
      <trkpt lat="43.5313" lon="5.57939">
        <ele>916</ele>
        <time>2020-02-08T13:28:10+01:00</time>
      </trkpt>
      <trkpt lat="43.53135" lon="5.57917">
        <ele>910.9</ele>
      </trkpt>
      <trkpt lat="43.53144" lon="5.57901">
        <ele>912.1</ele>
        <time>2020-02-08T13:30:26+01:00</time>
      </trkpt>
      <trkpt lat="43.53146" lon="5.57898">
        <ele>910.5</ele>
      </trkpt>
      <trkpt lat="43.53146" lon="5.57879">
        <ele>906.6</ele>
        <time>2020-02-08T13:30:49+01:00</time>
      </trkpt>
      <trkpt lat="43.53147" lon="5.57872">
        <ele>903.2</ele>
        <time>2020-02-08T13:31:56+01:00</time>
      </trkpt>
      <trkpt lat="43.53151" lon="5.57879">
        <ele>903.2</ele>
      </trkpt>
      <trkpt lat="43.53154" lon="5.57887">
        <ele>904.3</ele>
      </trkpt>
      <trkpt lat="43.53162" lon="5.57881">
        <ele>897.2</ele>
      </trkpt>
      <trkpt lat="43.53165" lon="5.57883">
        <ele>895.2</ele>
      </trkpt>
      <trkpt lat="43.53172" lon="5.57872">
        <ele>889.7</ele>
      </trkpt>
      <trkpt lat="43.53175" lon="5.57866">
        <ele>887.5</ele>
      </trkpt>
      <trkpt lat="43.53177" lon="5.57863">
        <ele>886.8</ele>
      </trkpt>
      <trkpt lat="43.53177" lon="5.57856">
        <ele>885.9</ele>
        <time>2020-02-08T13:33:51+01:00</time>
      </trkpt>
      <trkpt lat="43.53178" lon="5.57847">
        <ele>884.9</ele>
      </trkpt>
      <trkpt lat="43.53181" lon="5.57817">
        <ele>883.8</ele>
        <time>2020-02-08T13:34:48+01:00</time>
      </trkpt>
      <trkpt lat="43.53179" lon="5.57803">
        <ele>885.9</ele>
        <time>2020-02-08T13:35:12+01:00</time>
      </trkpt>
      <trkpt lat="43.53186" lon="5.57788">
        <ele>882.6</ele>
        <time>2020-02-08T13:35:36+01:00</time>
      </trkpt>
      <trkpt lat="43.53185" lon="5.5777">
        <ele>883</ele>
      </trkpt>
      <trkpt lat="43.53185" lon="5.57748">
        <ele>881.5</ele>
        <time>2020-02-08T13:36:15+01:00</time>
      </trkpt>
      <trkpt lat="43.53184" lon="5.57723">
        <ele>880.6</ele>
        <time>2020-02-08T13:36:32+01:00</time>
      </trkpt>
      <trkpt lat="43.5319" lon="5.57717">
        <ele>877.4</ele>
      </trkpt>
      <trkpt lat="43.53192" lon="5.57707">
        <ele>877</ele>
      </trkpt>
      <trkpt lat="43.53198" lon="5.57685">
        <ele>874.7</ele>
        <time>2020-02-08T13:37:09+01:00</time>
      </trkpt>
      <trkpt lat="43.532" lon="5.57669">
        <ele>874.2</ele>
        <time>2020-02-08T13:37:22+01:00</time>
      </trkpt>
      <trkpt lat="43.53205" lon="5.57658">
        <ele>872</ele>
        <time>2020-02-08T13:37:50+01:00</time>
      </trkpt>
      <trkpt lat="43.53207" lon="5.57649">
        <ele>871.4</ele>
      </trkpt>
      <trkpt lat="43.53211" lon="5.57631">
        <ele>869.5</ele>
      </trkpt>
      <trkpt lat="43.53214" lon="5.57638">
        <ele>867.9</ele>
        <time>2020-02-08T13:38:18+01:00</time>
      </trkpt>
      <trkpt lat="43.53217" lon="5.5763">
        <ele>866.4</ele>
      </trkpt>
      <trkpt lat="43.53217" lon="5.57606">
        <ele>865.6</ele>
      </trkpt>
      <trkpt lat="43.53219" lon="5.57603">
        <ele>864.6</ele>
      </trkpt>
      <trkpt lat="43.5322" lon="5.57585">
        <ele>863</ele>
        <time>2020-02-08T13:40:18+01:00</time>
      </trkpt>
      <trkpt lat="43.53227" lon="5.57577">
        <ele>859.6</ele>
        <time>2020-02-08T13:41:22+01:00</time>
      </trkpt>
      <trkpt lat="43.53231" lon="5.57578">
        <ele>857.6</ele>
        <time>2020-02-08T13:41:56+01:00</time>
      </trkpt>
      <trkpt lat="43.53239" lon="5.57575">
        <ele>853.2</ele>
        <time>2020-02-08T13:42:28+01:00</time>
      </trkpt>
      <trkpt lat="43.53244" lon="5.57557">
        <ele>850.1</ele>
        <time>2020-02-08T13:43:51+01:00</time>
      </trkpt>
      <trkpt lat="43.53246" lon="5.57553">
        <ele>848.8</ele>
      </trkpt>
      <trkpt lat="43.53257" lon="5.57538">
        <ele>843.4</ele>
      </trkpt>
      <trkpt lat="43.53264" lon="5.5753">
        <ele>839.9</ele>
        <time>2020-02-08T13:44:31+01:00</time>
      </trkpt>
      <trkpt lat="43.53268" lon="5.57525">
        <ele>838.1</ele>
      </trkpt>
      <trkpt lat="43.53272" lon="5.57523">
        <ele>836.4</ele>
        <time>2020-02-08T13:44:49+01:00</time>
      </trkpt>
      <trkpt lat="43.53279" lon="5.5752">
        <ele>833.1</ele>
        <time>2020-02-08T13:45:11+01:00</time>
      </trkpt>
      <trkpt lat="43.53285" lon="5.57513">
        <ele>830.1</ele>
        <time>2020-02-08T13:46:01+01:00</time>
      </trkpt>
      <trkpt lat="43.53294" lon="5.57503">
        <ele>825.9</ele>
      </trkpt>
      <trkpt lat="43.53302" lon="5.57484">
        <ele>819.9</ele>
      </trkpt>
      <trkpt lat="43.53306" lon="5.57476">
        <ele>818.3</ele>
      </trkpt>
      <trkpt lat="43.53308" lon="5.57474">
        <ele>817.3</ele>
        <time>2020-02-08T13:46:53+01:00</time>
      </trkpt>
      <trkpt lat="43.53315" lon="5.57477">
        <ele>814.7</ele>
      </trkpt>
      <trkpt lat="43.53328" lon="5.5747">
        <ele>808.7</ele>
      </trkpt>
      <trkpt lat="43.53332" lon="5.57464">
        <ele>806</ele>
        <time>2020-02-08T13:48:31+01:00</time>
      </trkpt>
      <trkpt lat="43.53331" lon="5.57459">
        <ele>805.4</ele>
        <time>2020-02-08T13:48:47+01:00</time>
      </trkpt>
      <trkpt lat="43.53329" lon="5.57455">
        <ele>805</ele>
      </trkpt>
      <trkpt lat="43.5333" lon="5.57446">
        <ele>803</ele>
      </trkpt>
      <trkpt lat="43.53329" lon="5.57437">
        <ele>798.1</ele>
      </trkpt>
      <trkpt lat="43.53336" lon="5.57432">
        <ele>795</ele>
      </trkpt>
      <trkpt lat="43.5334" lon="5.57435">
        <ele>794.8</ele>
      </trkpt>
      <trkpt lat="43.53345" lon="5.57439">
        <ele>795.3</ele>
      </trkpt>
      <trkpt lat="43.53355" lon="5.57459">
        <ele>796.1</ele>
      </trkpt>
      <trkpt lat="43.53359" lon="5.57469">
        <ele>796.1</ele>
      </trkpt>
      <trkpt lat="43.53361" lon="5.57468">
        <ele>795.1</ele>
        <time>2020-02-08T13:49:13+01:00</time>
      </trkpt>
      <trkpt lat="43.53362" lon="5.57465">
        <ele>794.3</ele>
        <time>2020-02-08T13:49:30+01:00</time>
      </trkpt>
      <trkpt lat="43.53361" lon="5.5745">
        <ele>791.9</ele>
        <time>2020-02-08T13:50:13+01:00</time>
      </trkpt>
      <trkpt lat="43.53364" lon="5.57437">
        <ele>788.7</ele>
        <time>2020-02-08T13:50:28+01:00</time>
      </trkpt>
      <trkpt lat="43.53369" lon="5.57428">
        <ele>785.6</ele>
        <time>2020-02-08T13:50:46+01:00</time>
      </trkpt>
      <trkpt lat="43.53374" lon="5.57419">
        <ele>782.6</ele>
        <time>2020-02-08T13:56:24+01:00</time>
      </trkpt>
      <trkpt lat="43.53383" lon="5.57399">
        <ele>775</ele>
      </trkpt>
      <trkpt lat="43.53384" lon="5.57394">
        <ele>773.6</ele>
        <time>2020-02-08T13:57:07+01:00</time>
      </trkpt>
      <trkpt lat="43.53386" lon="5.57387">
        <ele>772.1</ele>
        <time>2020-02-08T13:57:41+01:00</time>
      </trkpt>
      <trkpt lat="43.53393" lon="5.57379">
        <ele>769.6</ele>
        <time>2020-02-08T13:58:05+01:00</time>
      </trkpt>
      <trkpt lat="43.53393" lon="5.57362">
        <ele>764.8</ele>
        <time>2020-02-08T13:59:18+01:00</time>
      </trkpt>
      <trkpt lat="43.53385" lon="5.57369">
        <ele>765.4</ele>
      </trkpt>
      <trkpt lat="43.53371" lon="5.57375">
        <ele>763.3</ele>
      </trkpt>
      <trkpt lat="43.53353" lon="5.57378">
        <ele>758.5</ele>
      </trkpt>
      <trkpt lat="43.53342" lon="5.57372">
        <ele>750.8</ele>
      </trkpt>
      <trkpt lat="43.53335" lon="5.57371">
        <ele>746.6</ele>
      </trkpt>
      <trkpt lat="43.53321" lon="5.57364">
        <ele>740.6</ele>
      </trkpt>
      <trkpt lat="43.53308" lon="5.57362">
        <ele>738.5</ele>
      </trkpt>
      <trkpt lat="43.53296" lon="5.57363">
        <ele>738.1</ele>
      </trkpt>
      <trkpt lat="43.53275" lon="5.57344">
        <ele>728</ele>
      </trkpt>
      <trkpt lat="43.53274" lon="5.5732">
        <ele>718.7</ele>
      </trkpt>
      <trkpt lat="43.53278" lon="5.57308">
        <ele>712.7</ele>
      </trkpt>
      <trkpt lat="43.53291" lon="5.57294">
        <ele>701.9</ele>
      </trkpt>
      <trkpt lat="43.53298" lon="5.57287">
        <ele>694.3</ele>
      </trkpt>
      <trkpt lat="43.53301" lon="5.5729">
        <ele>695.2</ele>
      </trkpt>
      <trkpt lat="43.53306" lon="5.5729">
        <ele>694.5</ele>
      </trkpt>
      <trkpt lat="43.53317" lon="5.57285">
        <ele>694.7</ele>
      </trkpt>
      <trkpt lat="43.53316" lon="5.5728">
        <ele>691.2</ele>
      </trkpt>
      <trkpt lat="43.5331" lon="5.57277">
        <ele>686.4</ele>
      </trkpt>
      <trkpt lat="43.53305" lon="5.57263">
        <ele>677</ele>
      </trkpt>
      <trkpt lat="43.53307" lon="5.57256">
        <ele>673.4</ele>
      </trkpt>
      <trkpt lat="43.53299" lon="5.5725">
        <ele>672.6</ele>
      </trkpt>
      <trkpt lat="43.53303" lon="5.57236">
        <ele>664.9</ele>
      </trkpt>
      <trkpt lat="43.53311" lon="5.57227">
        <ele>660.1</ele>
      </trkpt>
      <trkpt lat="43.53317" lon="5.57202">
        <ele>649.7</ele>
      </trkpt>
      <trkpt lat="43.53319" lon="5.57192">
        <ele>645.4</ele>
      </trkpt>
      <trkpt lat="43.53317" lon="5.57181">
        <ele>641.2</ele>
      </trkpt>
      <trkpt lat="43.53319" lon="5.57176">
        <ele>638.7</ele>
      </trkpt>
      <trkpt lat="43.53322" lon="5.57167">
        <ele>634.4</ele>
      </trkpt>
      <trkpt lat="43.53322" lon="5.57159">
        <ele>631.1</ele>
      </trkpt>
      <trkpt lat="43.53319" lon="5.57154">
        <ele>629.3</ele>
      </trkpt>
      <trkpt lat="43.53316" lon="5.57147">
        <ele>626.7</ele>
      </trkpt>
      <trkpt lat="43.53319" lon="5.57139">
        <ele>622.9</ele>
      </trkpt>
      <trkpt lat="43.53318" lon="5.57133">
        <ele>619.9</ele>
      </trkpt>
      <trkpt lat="43.53316" lon="5.57128">
        <ele>617.5</ele>
      </trkpt>
      <trkpt lat="43.53307" lon="5.57115">
        <ele>610.4</ele>
        <time>2020-02-08T14:39:35+01:00</time>
      </trkpt>
      <trkpt lat="43.53304" lon="5.57107">
        <ele>606</ele>
      </trkpt>
      <trkpt lat="43.53301" lon="5.57094">
        <ele>600.1</ele>
        <time>2020-02-08T14:39:51+01:00</time>
      </trkpt>
      <trkpt lat="43.53294" lon="5.57076">
        <ele>593.2</ele>
        <time>2020-02-08T14:40:17+01:00</time>
      </trkpt>
      <trkpt lat="43.53284" lon="5.57059">
        <ele>588.8</ele>
        <time>2020-02-08T14:40:28+01:00</time>
      </trkpt>
      <trkpt lat="43.53265" lon="5.57054">
        <ele>585.3</ele>
        <time>2020-02-08T14:40:36+01:00</time>
      </trkpt>
      <trkpt lat="43.53257" lon="5.57057">
        <ele>584.7</ele>
        <time>2020-02-08T14:40:54+01:00</time>
      </trkpt>
      <trkpt lat="43.53242" lon="5.57052">
        <ele>582</ele>
        <time>2020-02-08T14:41:11+01:00</time>
      </trkpt>
      <trkpt lat="43.53239" lon="5.57041">
        <ele>578.7</ele>
      </trkpt>
      <trkpt lat="43.5323" lon="5.5703">
        <ele>576</ele>
        <time>2020-02-08T14:41:36+01:00</time>
      </trkpt>
      <trkpt lat="43.53219" lon="5.57019">
        <ele>572.4</ele>
        <time>2020-02-08T14:41:55+01:00</time>
      </trkpt>
      <trkpt lat="43.53234" lon="5.57003">
        <ele>567.4</ele>
      </trkpt>
      <trkpt lat="43.53231" lon="5.56997">
        <ele>566</ele>
        <time>2020-02-08T14:42:05+01:00</time>
      </trkpt>
      <trkpt lat="43.53237" lon="5.56988">
        <ele>563.2</ele>
        <time>2020-02-08T14:42:42+01:00</time>
      </trkpt>
      <trkpt lat="43.53229" lon="5.56982">
        <ele>562</ele>
        <time>2020-02-08T14:42:52+01:00</time>
      </trkpt>
      <trkpt lat="43.53227" lon="5.56965">
        <ele>558.4</ele>
      </trkpt>
      <trkpt lat="43.53229" lon="5.56948">
        <ele>554.8</ele>
        <time>2020-02-08T14:43:14+01:00</time>
      </trkpt>
      <trkpt lat="43.53224" lon="5.5693">
        <ele>552.3</ele>
      </trkpt>
      <trkpt lat="43.5323" lon="5.56917">
        <ele>549.5</ele>
        <time>2020-02-08T14:43:37+01:00</time>
      </trkpt>
      <trkpt lat="43.53223" lon="5.56883">
        <ele>547.2</ele>
        <time>2020-02-08T14:43:58+01:00</time>
      </trkpt>
      <trkpt lat="43.53223" lon="5.56868">
        <ele>545.7</ele>
        <time>2020-02-08T14:44:25+01:00</time>
      </trkpt>
      <trkpt lat="43.53221" lon="5.56862">
        <ele>544.7</ele>
      </trkpt>
      <trkpt lat="43.53222" lon="5.56856">
        <ele>544.3</ele>
      </trkpt>
      <trkpt lat="43.5322" lon="5.56851">
        <ele>543.4</ele>
      </trkpt>
      <trkpt lat="43.53217" lon="5.56846">
        <ele>542.3</ele>
        <time>2020-02-08T14:47:51+01:00</time>
      </trkpt>
      <trkpt lat="43.53216" lon="5.56832">
        <ele>540.9</ele>
        <time>2020-02-08T14:48:03+01:00</time>
      </trkpt>
      <trkpt lat="43.53212" lon="5.56822">
        <ele>539.3</ele>
        <time>2020-02-08T14:48:16+01:00</time>
      </trkpt>
      <trkpt lat="43.53207" lon="5.5681">
        <ele>537.8</ele>
        <time>2020-02-08T14:48:33+01:00</time>
      </trkpt>
      <trkpt lat="43.53196" lon="5.56795">
        <ele>535.8</ele>
        <time>2020-02-08T14:49:37+01:00</time>
      </trkpt>
      <trkpt lat="43.53192" lon="5.56788">
        <ele>534.6</ele>
      </trkpt>
      <trkpt lat="43.5318" lon="5.56784">
        <ele>532.2</ele>
        <time>2020-02-08T14:49:56+01:00</time>
      </trkpt>
      <trkpt lat="43.53172" lon="5.5678">
        <ele>530.7</ele>
        <time>2020-02-08T14:50:11+01:00</time>
      </trkpt>
      <trkpt lat="43.53163" lon="5.56775">
        <ele>527.8</ele>
        <time>2020-02-08T14:51:44+01:00</time>
      </trkpt>
      <trkpt lat="43.53157" lon="5.56769">
        <ele>524.4</ele>
      </trkpt>
      <trkpt lat="43.53151" lon="5.56759">
        <ele>521.7</ele>
        <time>2020-02-08T14:52:32+01:00</time>
      </trkpt>
      <trkpt lat="43.53149" lon="5.56747">
        <ele>520.9</ele>
      </trkpt>
      <trkpt lat="43.53149" lon="5.56734">
        <ele>520.2</ele>
        <time>2020-02-08T14:53:05+01:00</time>
      </trkpt>
      <trkpt lat="43.5315" lon="5.56724">
        <ele>520</ele>
      </trkpt>
      <trkpt lat="43.53149" lon="5.56715">
        <ele>518.8</ele>
      </trkpt>
      <trkpt lat="43.53147" lon="5.56707">
        <ele>516.4</ele>
        <time>2020-02-08T14:54:00+01:00</time>
      </trkpt>
      <trkpt lat="43.53142" lon="5.56704">
        <ele>512.7</ele>
      </trkpt>
      <trkpt lat="43.53136" lon="5.56708">
        <ele>510.2</ele>
        <time>2020-02-08T14:54:34+01:00</time>
      </trkpt>
      <trkpt lat="43.53131" lon="5.56719">
        <ele>510</ele>
        <time>2020-02-08T14:55:02+01:00</time>
      </trkpt>
      <trkpt lat="43.53127" lon="5.56721">
        <ele>508.7</ele>
      </trkpt>
      <trkpt lat="43.53123" lon="5.56717">
        <ele>506.7</ele>
        <time>2020-02-08T14:55:19+01:00</time>
      </trkpt>
      <trkpt lat="43.5312" lon="5.56712">
        <ele>505</ele>
      </trkpt>
      <trkpt lat="43.53118" lon="5.56706">
        <ele>503.8</ele>
        <time>2020-02-08T14:55:38+01:00</time>
      </trkpt>
      <trkpt lat="43.53113" lon="5.567">
        <ele>501.6</ele>
        <time>2020-02-08T14:55:54+01:00</time>
      </trkpt>
      <trkpt lat="43.53108" lon="5.56696">
        <ele>500</ele>
      </trkpt>
      <trkpt lat="43.53103" lon="5.56696">
        <ele>498.6</ele>
      </trkpt>
      <trkpt lat="43.53095" lon="5.56695">
        <ele>496.2</ele>
        <time>2020-02-08T14:56:48+01:00</time>
      </trkpt>
      <trkpt lat="43.53085" lon="5.5669">
        <ele>493</ele>
        <time>2020-02-08T14:57:02+01:00</time>
      </trkpt>
      <trkpt lat="43.53078" lon="5.56689">
        <ele>491.8</ele>
        <time>2020-02-08T14:57:13+01:00</time>
      </trkpt>
      <trkpt lat="43.53073" lon="5.56693">
        <ele>491.4</ele>
        <time>2020-02-08T14:57:30+01:00</time>
      </trkpt>
      <trkpt lat="43.53073" lon="5.56714">
        <ele>489.1</ele>
        <time>2020-02-08T14:57:40+01:00</time>
      </trkpt>
      <trkpt lat="43.53065" lon="5.56714">
        <ele>487.8</ele>
      </trkpt>
      <trkpt lat="43.53061" lon="5.56717">
        <ele>486.7</ele>
        <time>2020-02-08T14:57:58+01:00</time>
      </trkpt>
      <trkpt lat="43.53054" lon="5.56721">
        <ele>484.7</ele>
      </trkpt>
      <trkpt lat="43.5305" lon="5.56722">
        <ele>483.8</ele>
      </trkpt>
      <trkpt lat="43.53045" lon="5.5673">
        <ele>481.9</ele>
        <time>2020-02-08T14:58:09+01:00</time>
      </trkpt>
      <trkpt lat="43.53042" lon="5.56736">
        <ele>480.3</ele>
        <time>2020-02-08T14:58:27+01:00</time>
      </trkpt>
      <trkpt lat="43.5304" lon="5.56748">
        <ele>478.3</ele>
      </trkpt>
      <trkpt lat="43.53041" lon="5.56753">
        <ele>477.3</ele>
      </trkpt>
      <trkpt lat="43.53047" lon="5.56766">
        <ele>476.2</ele>
      </trkpt>
      <trkpt lat="43.53051" lon="5.56774">
        <ele>475.1</ele>
      </trkpt>
      <trkpt lat="43.53055" lon="5.56777">
        <ele>476.1</ele>
      </trkpt>
      <trkpt lat="43.53058" lon="5.56787">
        <ele>475</ele>
        <time>2020-02-08T14:59:05+01:00</time>
      </trkpt>
      <trkpt lat="43.53061" lon="5.56792">
        <ele>475</ele>
        <time>2020-02-08T14:59:17+01:00</time>
      </trkpt>
      <trkpt lat="43.53062" lon="5.56794">
        <ele>474.7</ele>
      </trkpt>
      <trkpt lat="43.53058" lon="5.568">
        <ele>472.3</ele>
        <time>2020-02-08T14:59:30+01:00</time>
      </trkpt>
      <trkpt lat="43.53054" lon="5.568">
        <ele>470.6</ele>
      </trkpt>
      <trkpt lat="43.53051" lon="5.56803">
        <ele>469.4</ele>
        <time>2020-02-08T14:59:43+01:00</time>
      </trkpt>
      <trkpt lat="43.53044" lon="5.56801">
        <ele>467.8</ele>
      </trkpt>
      <trkpt lat="43.53037" lon="5.56805">
        <ele>465.4</ele>
        <time>2020-02-08T15:00:01+01:00</time>
      </trkpt>
      <trkpt lat="43.53035" lon="5.56822">
        <ele>463.7</ele>
      </trkpt>
      <trkpt lat="43.53027" lon="5.56843">
        <ele>460.6</ele>
        <time>2020-02-08T15:00:35+01:00</time>
      </trkpt>
      <trkpt lat="43.5302" lon="5.56862">
        <ele>458.4</ele>
        <time>2020-02-08T15:00:47+01:00</time>
      </trkpt>
      <trkpt lat="43.53018" lon="5.56864">
        <ele>457.9</ele>
      </trkpt>
      <trkpt lat="43.53004" lon="5.56869">
        <ele>454.8</ele>
        <time>2020-02-08T15:01:34+01:00</time>
      </trkpt>
      <trkpt lat="43.53" lon="5.56871">
        <ele>454</ele>
      </trkpt>
      <trkpt lat="43.52995" lon="5.56877">
        <ele>453</ele>
      </trkpt>
      <trkpt lat="43.52991" lon="5.56877">
        <ele>452</ele>
      </trkpt>
      <trkpt lat="43.52985" lon="5.56884">
        <ele>450.7</ele>
      </trkpt>
      <trkpt lat="43.52978" lon="5.56889">
        <ele>449.3</ele>
        <time>2020-02-08T15:02:13+01:00</time>
      </trkpt>
      <trkpt lat="43.52974" lon="5.56901">
        <ele>448.8</ele>
        <time>2020-02-08T15:02:30+01:00</time>
      </trkpt>
      <trkpt lat="43.52973" lon="5.5691">
        <ele>449</ele>
      </trkpt>
      <trkpt lat="43.5297" lon="5.56921">
        <ele>448.8</ele>
      </trkpt>
      <trkpt lat="43.52966" lon="5.56926">
        <ele>448.3</ele>
        <time>2020-02-08T15:03:08+01:00</time>
      </trkpt>
      <trkpt lat="43.52954" lon="5.56923">
        <ele>445.5</ele>
        <time>2020-02-08T15:03:23+01:00</time>
      </trkpt>
      <trkpt lat="43.52946" lon="5.56923">
        <ele>443.7</ele>
        <time>2020-02-08T15:03:32+01:00</time>
      </trkpt>
      <trkpt lat="43.52924" lon="5.56915">
        <ele>440</ele>
        <time>2020-02-08T15:04:21+01:00</time>
      </trkpt>
      <trkpt lat="43.5292" lon="5.56914">
        <ele>439.4</ele>
      </trkpt>
      <trkpt lat="43.52914" lon="5.56916">
        <ele>438.8</ele>
      </trkpt>
      <trkpt lat="43.52909" lon="5.56917">
        <ele>438.5</ele>
      </trkpt>
      <trkpt lat="43.52902" lon="5.56917">
        <ele>438.1</ele>
        <time>2020-02-08T15:05:07+01:00</time>
      </trkpt>
      <trkpt lat="43.52883" lon="5.56908">
        <ele>435.2</ele>
        <time>2020-02-08T15:05:58+01:00</time>
      </trkpt>
      <trkpt lat="43.52878" lon="5.56899">
        <ele>433.5</ele>
        <time>2020-02-08T15:06:48+01:00</time>
      </trkpt>
      <trkpt lat="43.52877" lon="5.56895">
        <ele>433</ele>
        <time>2020-02-08T15:07:36+01:00</time>
      </trkpt>
      <trkpt lat="43.52877" lon="5.56875">
        <ele>432.8</ele>
      </trkpt>
      <trkpt lat="43.52876" lon="5.56853">
        <ele>432.6</ele>
        <time>2020-02-08T15:08:01+01:00</time>
      </trkpt>
      <trkpt lat="43.52879" lon="5.56829">
        <ele>432.7</ele>
        <time>2020-02-08T15:11:56+01:00</time>
      </trkpt>
      <trkpt lat="43.52881" lon="5.56817">
        <ele>431.8</ele>
      </trkpt>
      <trkpt lat="43.52886" lon="5.56804">
        <ele>430.7</ele>
      </trkpt>
      <trkpt lat="43.52891" lon="5.56789">
        <ele>430.2</ele>
      </trkpt>
      <trkpt lat="43.52893" lon="5.56777">
        <ele>429.6</ele>
        <time>2020-02-08T15:12:22+01:00</time>
      </trkpt>
      <trkpt lat="43.52893" lon="5.56764">
        <ele>429.2</ele>
      </trkpt>
      <trkpt lat="43.52891" lon="5.56741">
        <ele>428.4</ele>
        <time>2020-02-08T15:12:58+01:00</time>
      </trkpt>
      <trkpt lat="43.52889" lon="5.5673">
        <ele>428</ele>
        <time>2020-02-08T15:13:06+01:00</time>
      </trkpt>
      <trkpt lat="43.52884" lon="5.56702">
        <ele>428</ele>
        <time>2020-02-08T15:13:39+01:00</time>
      </trkpt>
      <trkpt lat="43.52888" lon="5.56679">
        <ele>427.6</ele>
      </trkpt>
      <trkpt lat="43.52891" lon="5.56663">
        <ele>425.9</ele>
        <time>2020-02-08T15:14:15+01:00</time>
      </trkpt>
      <trkpt lat="43.529" lon="5.5663">
        <ele>423.6</ele>
        <time>2020-02-08T15:14:39+01:00</time>
      </trkpt>
      <trkpt lat="43.52916" lon="5.56568">
        <ele>421.3</ele>
      </trkpt>
      <trkpt lat="43.52919" lon="5.56546">
        <ele>420</ele>
        <time>2020-02-08T15:15:24+01:00</time>
      </trkpt>
      <trkpt lat="43.52916" lon="5.56532">
        <ele>418.2</ele>
        <time>2020-02-08T15:15:39+01:00</time>
      </trkpt>
      <trkpt lat="43.52911" lon="5.5652">
        <ele>417.1</ele>
      </trkpt>
      <trkpt lat="43.52901" lon="5.56504">
        <ele>415.7</ele>
        <time>2020-02-08T15:15:55+01:00</time>
      </trkpt>
      <trkpt lat="43.52892" lon="5.56476">
        <ele>415.2</ele>
      </trkpt>
      <trkpt lat="43.52888" lon="5.56459">
        <ele>415.2</ele>
        <time>2020-02-08T15:16:23+01:00</time>
      </trkpt>
      <trkpt lat="43.52887" lon="5.56446">
        <ele>415.5</ele>
        <time>2020-02-08T15:16:40+01:00</time>
      </trkpt>
      <trkpt lat="43.52884" lon="5.56435">
        <ele>414.6</ele>
      </trkpt>
      <trkpt lat="43.52877" lon="5.56421">
        <ele>413.6</ele>
        <time>2020-02-08T15:17:05+01:00</time>
      </trkpt>
      <trkpt lat="43.52872" lon="5.56396">
        <ele>413.2</ele>
      </trkpt>
      <trkpt lat="43.52871" lon="5.56364">
        <ele>413</ele>
        <time>2020-02-08T15:17:37+01:00</time>
      </trkpt>
      <trkpt lat="43.52857" lon="5.56307">
        <ele>412.1</ele>
        <time>2020-02-08T15:18:09+01:00</time>
      </trkpt>
      <trkpt lat="43.52861" lon="5.56286">
        <ele>412.3</ele>
        <time>2020-02-08T15:18:17+01:00</time>
      </trkpt>
      <trkpt lat="43.52863" lon="5.56249">
        <ele>410.5</ele>
        <time>2020-02-08T15:18:36+01:00</time>
      </trkpt>
      <trkpt lat="43.52856" lon="5.56215">
        <ele>408.6</ele>
        <time>2020-02-08T15:19:10+01:00</time>
      </trkpt>
      <trkpt lat="43.52833" lon="5.5617">
        <ele>401.9</ele>
        <time>2020-02-08T15:19:49+01:00</time>
      </trkpt>
      <trkpt lat="43.52818" lon="5.561">
        <ele>391.5</ele>
        <time>2020-02-08T15:20:43+01:00</time>
      </trkpt>
      <trkpt lat="43.52812" lon="5.56067">
        <ele>387.7</ele>
        <time>2020-02-08T15:21:02+01:00</time>
      </trkpt>
      <trkpt lat="43.52808" lon="5.5603">
        <ele>384.6</ele>
        <time>2020-02-08T15:21:33+01:00</time>
      </trkpt>
      <trkpt lat="43.52801" lon="5.5596">
        <ele>379.5</ele>
        <time>2020-02-08T15:21:51+01:00</time>
      </trkpt>
      <trkpt lat="43.52795" lon="5.55883">
        <ele>370.1</ele>
      </trkpt>
      <trkpt lat="43.52792" lon="5.55838">
        <ele>368.1</ele>
        <time>2020-02-08T15:24:47+01:00</time>
      </trkpt>
      <trkpt lat="43.52784" lon="5.55783">
        <ele>367.4</ele>
      </trkpt>
      <trkpt lat="43.52777" lon="5.55739">
        <ele>368.4</ele>
        <time>2020-02-08T15:25:45+01:00</time>
      </trkpt>
      <trkpt lat="43.52772" lon="5.55709">
        <ele>366.1</ele>
      </trkpt>
      <trkpt lat="43.52773" lon="5.55703">
        <ele>366.3</ele>
        <time>2020-02-08T15:25:54+01:00</time>
      </trkpt>
      <trkpt lat="43.52778" lon="5.55704">
        <ele>367.2</ele>
      </trkpt>
      <trkpt lat="43.52783" lon="5.55711">
        <ele>365.3</ele>
        <time>2020-02-08T15:26:05+01:00</time>
      </trkpt>
      <trkpt lat="43.52789" lon="5.55727">
        <ele>364</ele>
        <time>2020-02-08T15:26:14+01:00</time>
      </trkpt>
      <trkpt lat="43.52794" lon="5.55745">
        <ele>363</ele>
        <time>2020-02-08T15:26:32+01:00</time>
      </trkpt>
      <trkpt lat="43.52798" lon="5.55765">
        <ele>362.4</ele>
      </trkpt>
      <trkpt lat="43.52801" lon="5.55789">
        <ele>363.5</ele>
      </trkpt>
      <trkpt lat="43.52816" lon="5.55856">
        <ele>363.6</ele>
        <time>2020-02-08T15:27:32+01:00</time>
      </trkpt>
      <trkpt lat="43.52829" lon="5.55893">
        <ele>362.2</ele>
        <time>2020-02-08T15:28:13+01:00</time>
      </trkpt>
      <trkpt lat="43.52856" lon="5.55944">
        <ele>359.6</ele>
        <time>2020-02-08T15:28:52+01:00</time>
      </trkpt>
      <trkpt lat="43.5287" lon="5.55976">
        <ele>358.7</ele>
        <time>2020-02-08T15:29:11+01:00</time>
      </trkpt>
      <trkpt lat="43.52886" lon="5.56011">
        <ele>358.2</ele>
        <time>2020-02-08T15:29:27+01:00</time>
      </trkpt>
      <trkpt lat="43.52895" lon="5.56018">
        <ele>357.2</ele>
        <time>2020-02-08T15:29:43+01:00</time>
      </trkpt>
      <trkpt lat="43.52905" lon="5.56028">
        <ele>356.6</ele>
        <time>2020-02-08T15:30:02+01:00</time>
      </trkpt>
      <trkpt lat="43.52916" lon="5.56039">
        <ele>356.3</ele>
        <time>2020-02-08T15:30:10+01:00</time>
      </trkpt>
      <trkpt lat="43.52927" lon="5.56039">
        <ele>356.4</ele>
      </trkpt>
      <trkpt lat="43.52932" lon="5.56036">
        <ele>356.1</ele>
        <time>2020-02-08T15:30:29+01:00</time>
      </trkpt>
      <trkpt lat="43.52936" lon="5.56027">
        <ele>355.4</ele>
      </trkpt>
      <trkpt lat="43.52933" lon="5.56001">
        <ele>353.4</ele>
        <time>2020-02-08T15:30:51+01:00</time>
      </trkpt>
      <trkpt lat="43.52927" lon="5.55978">
        <ele>353.7</ele>
        <time>2020-02-08T15:31:30+01:00</time>
      </trkpt>
      <trkpt lat="43.52918" lon="5.55946">
        <ele>348</ele>
        <time>2020-02-08T15:31:51+01:00</time>
      </trkpt>
      <trkpt lat="43.52906" lon="5.55905">
        <ele>346.9</ele>
        <time>2020-02-08T15:32:01+01:00</time>
      </trkpt>
      <trkpt lat="43.52904" lon="5.5585">
        <ele>342.8</ele>
        <time>2020-02-08T15:32:31+01:00</time>
      </trkpt>
      <trkpt lat="43.52899" lon="5.55798">
        <ele>337.7</ele>
        <time>2020-02-08T15:32:46+01:00</time>
      </trkpt>
      <trkpt lat="43.5289" lon="5.55736">
        <ele>332</ele>
        <time>2020-02-08T15:34:10+01:00</time>
      </trkpt>
      <trkpt lat="43.5288" lon="5.55669">
        <ele>329.1</ele>
        <time>2020-02-08T15:34:38+01:00</time>
      </trkpt>
      <trkpt lat="43.52881" lon="5.55635">
        <ele>329.4</ele>
        <time>2020-02-08T15:35:19+01:00</time>
      </trkpt>
      <trkpt lat="43.52866" lon="5.55609">
        <ele>324.2</ele>
        <time>2020-02-08T15:35:35+01:00</time>
      </trkpt>
      <trkpt lat="43.52868" lon="5.55555">
        <ele>322.5</ele>
        <time>2020-02-08T15:36:09+01:00</time>
      </trkpt>
      <trkpt lat="43.52872" lon="5.55516">
        <ele>323.3</ele>
      </trkpt>
      <trkpt lat="43.52872" lon="5.55465">
        <ele>322.2</ele>
        <time>2020-02-08T15:36:40+01:00</time>
      </trkpt>
      <trkpt lat="43.52869" lon="5.55418">
        <ele>320.4</ele>
        <time>2020-02-08T15:37:15+01:00</time>
      </trkpt>
      <trkpt lat="43.52855" lon="5.55361">
        <ele>315.4</ele>
        <time>2020-02-08T15:38:23+01:00</time>
      </trkpt>
      <trkpt lat="43.52837" lon="5.55324">
        <ele>309.4</ele>
        <time>2020-02-08T15:38:43+01:00</time>
      </trkpt>
      <trkpt lat="43.52818" lon="5.55269">
        <ele>305.3</ele>
        <time>2020-02-08T15:39:19+01:00</time>
      </trkpt>
      <trkpt lat="43.52811" lon="5.55223">
        <ele>301.1</ele>
      </trkpt>
      <trkpt lat="43.52801" lon="5.55191">
        <ele>296.5</ele>
        <time>2020-02-08T15:41:00+01:00</time>
      </trkpt>
      <trkpt lat="43.52777" lon="5.5508">
        <ele>286.9</ele>
        <time>2020-02-08T15:41:34+01:00</time>
      </trkpt>
      <trkpt lat="43.52765" lon="5.55038">
        <ele>283.8</ele>
        <time>2020-02-08T15:42:06+01:00</time>
      </trkpt>
      <trkpt lat="43.52745" lon="5.54989">
        <ele>276.5</ele>
      </trkpt>
      <trkpt lat="43.52733" lon="5.54945">
        <ele>271.7</ele>
        <time>2020-02-08T15:42:56+01:00</time>
      </trkpt>
      <trkpt lat="43.52727" lon="5.54901">
        <ele>269.5</ele>
        <time>2020-02-08T15:43:26+01:00</time>
      </trkpt>
      <trkpt lat="43.52727" lon="5.54847">
        <ele>265.6</ele>
        <time>2020-02-08T15:43:58+01:00</time>
      </trkpt>
      <trkpt lat="43.52731" lon="5.54827">
        <ele>264.6</ele>
        <time>2020-02-08T15:44:07+01:00</time>
      </trkpt>
      <trkpt lat="43.52734" lon="5.54822">
        <ele>264.5</ele>
        <time>2020-02-08T15:44:16+01:00</time>
      </trkpt>
      <trkpt lat="43.52739" lon="5.54812">
        <ele>264.1</ele>
      </trkpt>
      <trkpt lat="43.52739" lon="5.54795">
        <ele>264</ele>
        <time>2020-02-08T15:45:24+01:00</time>
      </trkpt>
      <trkpt lat="43.52741" lon="5.54779">
        <ele>264.6</ele>
        <time>2020-02-08T15:46:25+01:00</time>
      </trkpt>
      <trkpt lat="43.5275" lon="5.54779">
        <ele>265</ele>
        <time>2020-02-08T15:46:39+01:00</time>
      </trkpt>
      <trkpt lat="43.52753" lon="5.54779">
        <ele>265.8</ele>
      </trkpt>
      <trkpt lat="43.52756" lon="5.54782">
        <ele>266.2</ele>
        <time>2020-02-08T15:46:59+01:00</time>
      </trkpt>
      <trkpt lat="43.52768" lon="5.54792">
        <ele>266.7</ele>
        <time>2020-02-08T15:47:16+01:00</time>
      </trkpt>
      <trkpt lat="43.52777" lon="5.54795">
        <ele>267</ele>
      </trkpt>
      <trkpt lat="43.52792" lon="5.54794">
        <ele>266.5</ele>
        <time>2020-02-08T15:47:42+01:00</time>
      </trkpt>
      <trkpt lat="43.52809" lon="5.54796">
        <ele>265.9</ele>
        <time>2020-02-08T15:48:02+01:00</time>
      </trkpt>
      <trkpt lat="43.52826" lon="5.54792">
        <ele>266.7</ele>
        <time>2020-02-08T15:48:10+01:00</time>
      </trkpt>
      <trkpt lat="43.52853" lon="5.54775">
        <ele>267.8</ele>
        <time>2020-02-08T15:48:44+01:00</time>
      </trkpt>
      <trkpt lat="43.5286" lon="5.54764">
        <ele>268.4</ele>
        <time>2020-02-08T15:49:40+01:00</time>
      </trkpt>
      <trkpt lat="43.52877" lon="5.5474">
        <ele>271</ele>
        <time>2020-02-08T15:49:50+01:00</time>
      </trkpt>
      <trkpt lat="43.52885" lon="5.54733">
        <ele>272.3</ele>
        <time>2020-02-08T15:49:58+01:00</time>
      </trkpt>
      <trkpt lat="43.52897" lon="5.54734">
        <ele>274.1</ele>
        <time>2020-02-08T15:50:07+01:00</time>
      </trkpt>
      <trkpt lat="43.52915" lon="5.5475">
        <ele>274.8</ele>
        <time>2020-02-08T15:50:25+01:00</time>
      </trkpt>
      <trkpt lat="43.52924" lon="5.54752">
        <ele>275.4</ele>
        <time>2020-02-08T15:51:04+01:00</time>
      </trkpt>
      <trkpt lat="43.52932" lon="5.54762">
        <ele>275.7</ele>
        <time>2020-02-08T15:51:24+01:00</time>
      </trkpt>
      <trkpt lat="43.52939" lon="5.54777">
        <ele>276.2</ele>
        <time>2020-02-08T15:51:36+01:00</time>
      </trkpt>
      <trkpt lat="43.52946" lon="5.54814">
        <ele>275.7</ele>
        <time>2020-02-08T15:52:21+01:00</time>
      </trkpt>
      <trkpt lat="43.52953" lon="5.54837">
        <ele>275.2</ele>
        <time>2020-02-08T15:52:40+01:00</time>
      </trkpt>
      <trkpt lat="43.52958" lon="5.54852">
        <ele>274.8</ele>
        <time>2020-02-08T15:53:01+01:00</time>
      </trkpt>
      <trkpt lat="43.52973" lon="5.54869">
        <ele>275.5</ele>
      </trkpt>
      <trkpt lat="43.52983" lon="5.54877">
        <ele>275</ele>
      </trkpt>
      <trkpt lat="43.5301" lon="5.54895">
        <ele>274.3</ele>
        <time>2020-02-08T15:53:22+01:00</time>
      </trkpt>
      <trkpt lat="43.53016" lon="5.5494">
        <ele>275.1</ele>
        <time>2020-02-08T15:53:29+01:00</time>
      </trkpt>
      <trkpt lat="43.53025" lon="5.54907">
        <ele>275.5</ele>
      </trkpt>
      <trkpt lat="43.53041" lon="5.54871">
        <ele>277.7</ele>
        <time>2020-02-08T15:54:34+01:00</time>
      </trkpt>
      <trkpt lat="43.53055" lon="5.54847">
        <ele>281.9</ele>
        <time>2020-02-08T15:55:16+01:00</time>
      </trkpt>
      <trkpt lat="43.53077" lon="5.54827">
        <ele>285.8</ele>
        <time>2020-02-08T15:55:26+01:00</time>
      </trkpt>
      <trkpt lat="43.53098" lon="5.54821">
        <ele>288.4</ele>
        <time>2020-02-08T15:55:46+01:00</time>
      </trkpt>
      <trkpt lat="43.5315" lon="5.548">
        <ele>301.5</ele>
      </trkpt>
      <trkpt lat="43.53162" lon="5.54799">
        <ele>303.5</ele>
      </trkpt>
      <trkpt lat="43.53176" lon="5.54805">
        <ele>303.5</ele>
        <time>2020-02-08T15:57:27+01:00</time>
      </trkpt>
      <trkpt lat="43.53183" lon="5.54802">
        <ele>305.4</ele>
        <time>2020-02-08T15:58:31+01:00</time>
      </trkpt>
      <trkpt lat="43.53192" lon="5.548">
        <ele>307.1</ele>
        <time>2020-02-08T15:58:43+01:00</time>
      </trkpt>
      <trkpt lat="43.53202" lon="5.54785">
        <ele>308.8</ele>
      </trkpt>
      <trkpt lat="43.53208" lon="5.54764">
        <ele>311.7</ele>
        <time>2020-02-08T15:58:54+01:00</time>
      </trkpt>
      <trkpt lat="43.53208" lon="5.54752">
        <ele>314.3</ele>
      </trkpt>
      <trkpt lat="43.53202" lon="5.54733">
        <ele>318.3</ele>
        <time>2020-02-08T16:00:45+01:00</time>
      </trkpt>
      <trkpt lat="43.53198" lon="5.54723">
        <ele>320.7</ele>
      </trkpt>
      <trkpt lat="43.53188" lon="5.54694">
        <ele>324</ele>
        <time>2020-02-08T16:00:57+01:00</time>
      </trkpt>
      <trkpt lat="43.5319" lon="5.54668">
        <ele>325.8</ele>
        <time>2020-02-08T16:01:23+01:00</time>
      </trkpt>
      <trkpt lat="43.53188" lon="5.54634">
        <ele>328.6</ele>
      </trkpt>
      <trkpt lat="43.53183" lon="5.54586">
        <ele>333</ele>
        <time>2020-02-08T16:01:46+01:00</time>
      </trkpt>
      <trkpt lat="43.53181" lon="5.54531">
        <ele>336</ele>
        <time>2020-02-08T16:03:06+01:00</time>
      </trkpt>
      <trkpt lat="43.53176" lon="5.54524">
        <ele>337.4</ele>
        <time>2020-02-08T16:03:25+01:00</time>
      </trkpt>
      <trkpt lat="43.53168" lon="5.54522">
        <ele>339.9</ele>
        <time>2020-02-08T16:03:46+01:00</time>
      </trkpt>
      <trkpt lat="43.53147" lon="5.54489">
        <ele>343.6</ele>
        <time>2020-02-08T16:04:07+01:00</time>
      </trkpt>
      <trkpt lat="43.53138" lon="5.5448">
        <ele>344.5</ele>
        <time>2020-02-08T16:04:30+01:00</time>
      </trkpt>
      <trkpt lat="43.53134" lon="5.54483">
        <ele>345.4</ele>
        <time>2020-02-08T16:05:50+01:00</time>
      </trkpt>
      <trkpt lat="43.53131" lon="5.54496">
        <ele>346.3</ele>
        <time>2020-02-08T16:06:38+01:00</time>
      </trkpt>
      <trkpt lat="43.53127" lon="5.54506">
        <ele>347.1</ele>
        <time>2020-02-08T16:06:47+01:00</time>
      </trkpt>
      <trkpt lat="43.53123" lon="5.54517">
        <ele>347.9</ele>
        <time>2020-02-08T16:06:57+01:00</time>
      </trkpt>
      <trkpt lat="43.53119" lon="5.54525">
        <ele>348.7</ele>
        <time>2020-02-08T16:07:09+01:00</time>
      </trkpt>
      <trkpt lat="43.53113" lon="5.54534">
        <ele>349.5</ele>
      </trkpt>
      <trkpt lat="43.53105" lon="5.54529">
        <ele>348.3</ele>
        <time>2020-02-08T16:07:27+01:00</time>
      </trkpt>
      <trkpt lat="43.53107" lon="5.54517">
        <ele>349</ele>
        <time>2020-02-08T16:08:17+01:00</time>
      </trkpt>
      <trkpt lat="43.53108" lon="5.54495">
        <ele>349.2</ele>
        <time>2020-02-08T16:08:26+01:00</time>
      </trkpt>
      <trkpt lat="43.531" lon="5.54483">
        <ele>347.6</ele>
      </trkpt>
      <trkpt lat="43.53098" lon="5.54473">
        <ele>347.6</ele>
        <time>2020-02-08T16:08:34+01:00</time>
      </trkpt>
      <trkpt lat="43.53102" lon="5.54459">
        <ele>348.9</ele>
        <time>2020-02-08T16:08:46+01:00</time>
      </trkpt>
      <trkpt lat="43.53103" lon="5.54426">
        <ele>350.5</ele>
      </trkpt>
      <trkpt lat="43.53108" lon="5.54355">
        <ele>357.1</ele>
        <time>2020-02-08T16:10:09+01:00</time>
      </trkpt>
      <trkpt lat="43.5311" lon="5.54313">
        <ele>361.6</ele>
        <time>2020-02-08T16:11:05+01:00</time>
      </trkpt>
      <trkpt lat="43.53122" lon="5.54259">
        <ele>364.3</ele>
        <time>2020-02-08T16:11:14+01:00</time>
      </trkpt>
      <trkpt lat="43.53121" lon="5.54224">
        <ele>364.4</ele>
        <time>2020-02-08T16:11:54+01:00</time>
      </trkpt>
      <trkpt lat="43.53127" lon="5.54206">
        <ele>365.7</ele>
        <time>2020-02-08T16:12:14+01:00</time>
      </trkpt>
      <trkpt lat="43.5314" lon="5.54189">
        <ele>370.5</ele>
      </trkpt>
      <trkpt lat="43.53154" lon="5.54178">
        <ele>370.1</ele>
        <time>2020-02-08T16:12:43+01:00</time>
      </trkpt>
      <trkpt lat="43.53162" lon="5.54163">
        <ele>371.4</ele>
        <time>2020-02-08T16:13:04+01:00</time>
      </trkpt>
      <trkpt lat="43.53175" lon="5.54153">
        <ele>372.2</ele>
        <time>2020-02-08T16:13:23+01:00</time>
      </trkpt>
      <trkpt lat="43.53187" lon="5.54155">
        <ele>370.9</ele>
      </trkpt>
      <trkpt lat="43.53196" lon="5.54158">
        <ele>369.8</ele>
      </trkpt>
      <trkpt lat="43.53217" lon="5.54167">
        <ele>367.3</ele>
        <time>2020-02-08T16:14:23+01:00</time>
      </trkpt>
      <trkpt lat="43.53225" lon="5.5417">
        <ele>366.1</ele>
      </trkpt>
      <trkpt lat="43.53248" lon="5.54185">
        <ele>362.8</ele>
        <time>2020-02-08T16:14:56+01:00</time>
      </trkpt>
      <trkpt lat="43.53273" lon="5.542">
        <ele>362.2</ele>
      </trkpt>
      <trkpt lat="43.53286" lon="5.54204">
        <ele>361.7</ele>
        <time>2020-02-08T16:17:26+01:00</time>
      </trkpt>
      <trkpt lat="43.53307" lon="5.54209">
        <ele>360.6</ele>
        <time>2020-02-08T16:17:57+01:00</time>
      </trkpt>
      <trkpt lat="43.53312" lon="5.5421">
        <ele>361</ele>
        <time>2020-02-08T16:18:18+01:00</time>
      </trkpt>
      <trkpt lat="43.53325" lon="5.54209">
        <ele>362</ele>
      </trkpt>
      <trkpt lat="43.53338" lon="5.54207">
        <ele>364</ele>
      </trkpt>
      <trkpt lat="43.53351" lon="5.54193">
        <ele>365.8</ele>
        <time>2020-02-08T16:18:38+01:00</time>
      </trkpt>
      <trkpt lat="43.5335" lon="5.54167">
        <ele>365.7</ele>
        <time>2020-02-08T16:19:23+01:00</time>
      </trkpt>
      <trkpt lat="43.53346" lon="5.5415">
        <ele>366.7</ele>
        <time>2020-02-08T16:19:45+01:00</time>
      </trkpt>
      <trkpt lat="43.53347" lon="5.54133">
        <ele>368.3</ele>
        <time>2020-02-08T16:20:06+01:00</time>
      </trkpt>
      <trkpt lat="43.53352" lon="5.54114">
        <ele>370.1</ele>
        <time>2020-02-08T16:20:41+01:00</time>
      </trkpt>
      <trkpt lat="43.53364" lon="5.54098">
        <ele>370.9</ele>
        <time>2020-02-08T16:20:59+01:00</time>
      </trkpt>
      <trkpt lat="43.53381" lon="5.54092">
        <ele>372.5</ele>
      </trkpt>
      <trkpt lat="43.53393" lon="5.54088">
        <ele>373.5</ele>
        <time>2020-02-08T16:21:20+01:00</time>
      </trkpt>
      <trkpt lat="43.53419" lon="5.54077">
        <ele>376.7</ele>
        <time>2020-02-08T16:21:51+01:00</time>
      </trkpt>
      <trkpt lat="43.53433" lon="5.54055">
        <ele>377.4</ele>
        <time>2020-02-08T16:22:02+01:00</time>
      </trkpt>
      <trkpt lat="43.53441" lon="5.54036">
        <ele>378.2</ele>
        <time>2020-02-08T16:22:33+01:00</time>
      </trkpt>
      <trkpt lat="43.53444" lon="5.54012">
        <ele>377.9</ele>
        <time>2020-02-08T16:22:51+01:00</time>
      </trkpt>
      <trkpt lat="43.53453" lon="5.54004">
        <ele>378</ele>
        <time>2020-02-08T16:23:02+01:00</time>
      </trkpt>
      <trkpt lat="43.53458" lon="5.53998">
        <ele>377.9</ele>
        <time>2020-02-08T16:23:11+01:00</time>
      </trkpt>
      <trkpt lat="43.53469" lon="5.5397">
        <ele>377.6</ele>
        <time>2020-02-08T16:23:51+01:00</time>
      </trkpt>
      <trkpt lat="43.53481" lon="5.53961">
        <ele>377.7</ele>
      </trkpt>
      <trkpt lat="43.53503" lon="5.53949">
        <ele>377.7</ele>
        <time>2020-02-08T16:23:59+01:00</time>
      </trkpt>
      <trkpt lat="43.53513" lon="5.53931">
        <ele>377.2</ele>
        <time>2020-02-08T16:24:06+01:00</time>
      </trkpt>
      <trkpt lat="43.53534" lon="5.53929">
        <ele>377.9</ele>
      </trkpt>
      <trkpt lat="43.53559" lon="5.53924">
        <ele>377.7</ele>
        <time>2020-02-08T16:24:24+01:00</time>
      </trkpt>
      <trkpt lat="43.53573" lon="5.53921">
        <ele>378</ele>
        <time>2020-02-08T16:25:10+01:00</time>
      </trkpt>
      <trkpt lat="43.5359" lon="5.53903">
        <ele>377.1</ele>
        <time>2020-02-08T16:25:28+01:00</time>
      </trkpt>
      <trkpt lat="43.53599" lon="5.53905">
        <ele>377.4</ele>
        <time>2020-02-08T16:25:37+01:00</time>
      </trkpt>
      <trkpt lat="43.53617" lon="5.53908">
        <ele>377.6</ele>
        <time>2020-02-08T16:25:46+01:00</time>
      </trkpt>
      <trkpt lat="43.53695" lon="5.53907">
        <ele>376.3</ele>
      </trkpt>
      <trkpt lat="43.53734" lon="5.53909">
        <ele>375.3</ele>
        <time>2020-02-08T16:28:04+01:00</time>
      </trkpt>
      <trkpt lat="43.53751" lon="5.53911">
        <ele>374.7</ele>
      </trkpt>
      <trkpt lat="43.53758" lon="5.53902">
        <ele>374</ele>
        <time>2020-02-08T16:28:31+01:00</time>
      </trkpt>
      <trkpt lat="43.53776" lon="5.53885">
        <ele>372.9</ele>
        <time>2020-02-08T16:29:28+01:00</time>
      </trkpt>
      <trkpt lat="43.53775" lon="5.53878">
        <ele>372.7</ele>
        <time>2020-02-08T16:29:42+01:00</time>
      </trkpt>
      <trkpt lat="43.53786" lon="5.53859">
        <ele>371.5</ele>
        <time>2020-02-08T16:29:55+01:00</time>
      </trkpt>
      <trkpt lat="43.53786" lon="5.53848">
        <ele>372</ele>
        <time>2020-02-08T16:30:15+01:00</time>
      </trkpt>
      <trkpt lat="43.5381" lon="5.53793">
        <ele>372.7</ele>
        <time>2020-02-08T16:31:01+01:00</time>
      </trkpt>
      <trkpt lat="43.5382" lon="5.53784">
        <ele>372.3</ele>
      </trkpt>
      <trkpt lat="43.53826" lon="5.53784">
        <ele>372.1</ele>
        <time>2020-02-08T16:31:25+01:00</time>
      </trkpt>
      <trkpt lat="43.53834" lon="5.53784">
        <ele>371.8</ele>
        <time>2020-02-08T16:31:57+01:00</time>
      </trkpt>
      <trkpt lat="43.53853" lon="5.53744">
        <ele>369.8</ele>
        <time>2020-02-08T16:32:26+01:00</time>
      </trkpt>
      <trkpt lat="43.53849" lon="5.53713">
        <ele>369.5</ele>
        <time>2020-02-08T16:32:42+01:00</time>
      </trkpt>
      <trkpt lat="43.53846" lon="5.53692">
        <ele>368.9</ele>
        <time>2020-02-08T16:32:52+01:00</time>
      </trkpt>
      <trkpt lat="43.53831" lon="5.5366">
        <ele>367.6</ele>
        <time>2020-02-08T16:33:06+01:00</time>
      </trkpt>
      <trkpt lat="43.53823" lon="5.53651">
        <ele>367.5</ele>
        <time>2020-02-08T16:33:13+01:00</time>
      </trkpt>
      <trkpt lat="43.5381" lon="5.53639">
        <ele>367.7</ele>
        <time>2020-02-08T16:33:22+01:00</time>
      </trkpt>
      <trkpt lat="43.53814" lon="5.53632">
        <ele>367.1</ele>
      </trkpt>
      <trkpt lat="43.53821" lon="5.53607">
        <ele>365.8</ele>
      </trkpt>
      <trkpt lat="43.53831" lon="5.53588">
        <ele>364.4</ele>
        <time>2020-02-08T16:33:51+01:00</time>
      </trkpt>
      <trkpt lat="43.53841" lon="5.53583">
        <ele>363.2</ele>
        <time>2020-02-08T16:34:16+01:00</time>
      </trkpt>
      <trkpt lat="43.53857" lon="5.53584">
        <ele>361.5</ele>
        <time>2020-02-08T16:34:27+01:00</time>
      </trkpt>
      <trkpt lat="43.53869" lon="5.53576">
        <ele>360.3</ele>
      </trkpt>
      <trkpt lat="43.53878" lon="5.53567">
        <ele>359.1</ele>
        <time>2020-02-08T16:36:08+01:00</time>
      </trkpt>
      <trkpt lat="43.53886" lon="5.53562">
        <ele>358</ele>
        <time>2020-02-08T16:36:16+01:00</time>
      </trkpt>
      <trkpt lat="43.53892" lon="5.5356">
        <ele>357.2</ele>
      </trkpt>
      <trkpt lat="43.53896" lon="5.53559">
        <ele>356.8</ele>
        <time>2020-02-08T16:36:23+01:00</time>
      </trkpt>
      <trkpt lat="43.53904" lon="5.53561">
        <ele>356.3</ele>
        <time>2020-02-08T16:36:32+01:00</time>
      </trkpt>
      <trkpt lat="43.53909" lon="5.53561">
        <ele>356</ele>
        <time>2020-02-08T16:36:43+01:00</time>
      </trkpt>
      <trkpt lat="43.53917" lon="5.53568">
        <ele>355.6</ele>
        <time>2020-02-08T16:36:55+01:00</time>
      </trkpt>
      <trkpt lat="43.53926" lon="5.53585">
        <ele>353.8</ele>
        <time>2020-02-08T16:37:17+01:00</time>
      </trkpt>
      <trkpt lat="43.53942" lon="5.53605">
        <ele>351.5</ele>
      </trkpt>
      <trkpt lat="43.53972" lon="5.53629">
        <ele>339.9</ele>
        <time>2020-02-08T16:38:07+01:00</time>
      </trkpt>
      <trkpt lat="43.53996" lon="5.53646">
        <ele>324.4</ele>
      </trkpt>
      <trkpt lat="43.54012" lon="5.53652">
        <ele>316.9</ele>
        <time>2020-02-08T16:38:57+01:00</time>
      </trkpt>
      <trkpt lat="43.54032" lon="5.53655">
        <ele>311.6</ele>
        <time>2020-02-08T16:39:15+01:00</time>
      </trkpt>
      <trkpt lat="43.54045" lon="5.53655">
        <ele>311.5</ele>
      </trkpt>
      <trkpt lat="43.54055" lon="5.53654">
        <ele>309.2</ele>
        <time>2020-02-08T16:39:54+01:00</time>
      </trkpt>
      <trkpt lat="43.54064" lon="5.53651">
        <ele>310.4</ele>
        <time>2020-02-08T16:40:04+01:00</time>
      </trkpt>
      <trkpt lat="43.54076" lon="5.53646">
        <ele>315</ele>
        <time>2020-02-08T16:40:12+01:00</time>
      </trkpt>
      <trkpt lat="43.54082" lon="5.53643">
        <ele>318.7</ele>
        <time>2020-02-08T16:40:19+01:00</time>
      </trkpt>
      <trkpt lat="43.54091" lon="5.53638">
        <ele>321.4</ele>
        <time>2020-02-08T16:40:35+01:00</time>
      </trkpt>
      <trkpt lat="43.54101" lon="5.53631">
        <ele>324.1</ele>
        <time>2020-02-08T16:41:12+01:00</time>
      </trkpt>
      <trkpt lat="43.54116" lon="5.53614">
        <ele>333.6</ele>
      </trkpt>
      <trkpt lat="43.54136" lon="5.53586">
        <ele>349.2</ele>
      </trkpt>
      <trkpt lat="43.54143" lon="5.53578">
        <ele>352.3</ele>
        <time>2020-02-08T16:41:53+01:00</time>
      </trkpt>
      <trkpt lat="43.54146" lon="5.5357">
        <ele>352.6</ele>
        <time>2020-02-08T16:42:14+01:00</time>
      </trkpt>
      <trkpt lat="43.54151" lon="5.53554">
        <ele>353.2</ele>
      </trkpt>
      <trkpt lat="43.54152" lon="5.53532">
        <ele>353.7</ele>
        <time>2020-02-08T16:42:31+01:00</time>
      </trkpt>
      <trkpt lat="43.54149" lon="5.53517">
        <ele>354.6</ele>
      </trkpt>
      <trkpt lat="43.54137" lon="5.53478">
        <ele>356.6</ele>
      </trkpt>
      <trkpt lat="43.54135" lon="5.53463">
        <ele>356.9</ele>
        <time>2020-02-08T16:43:20+01:00</time>
      </trkpt>
      <trkpt lat="43.54135" lon="5.53445">
        <ele>358.3</ele>
      </trkpt>
      <trkpt lat="43.5414" lon="5.53431">
        <ele>358.2</ele>
        <time>2020-02-08T16:43:45+01:00</time>
      </trkpt>
      <trkpt lat="43.54157" lon="5.53402">
        <ele>357.2</ele>
      </trkpt>
      <trkpt lat="43.54167" lon="5.53361">
        <ele>358</ele>
        <time>2020-02-08T16:44:53+01:00</time>
      </trkpt>
      <trkpt lat="43.54166" lon="5.53335">
        <ele>357</ele>
      </trkpt>
      <trkpt lat="43.5417" lon="5.53331">
        <ele>357.4</ele>
        <time>2020-02-08T16:45:09+01:00</time>
      </trkpt>
    </trkseg>
  </trk>
</gpx>